Wetterdaten: Sonntag, 20.06.2021
Datum Zeit Temp. Aussen Temp. o. S. Temp +5cm Feuchte Auss Luftdruck Regen Sonnenschein Regendauer Solar Windben Empfang
20.06.2021 00:00 23,0 C 21,1 C 17,8 C 84 % 1008,9 hPa 0,0 l/m 0 min 2 min 0 W/m 9,7 km/h (2 Bft) 96,00 %
20.06.2021 00:02 23,0 C 21,1 C 17,8 C 84 % 1009,1 hPa 0,0 l/m 0 min 2 min 0 W/m 6,4 km/h (2 Bft) 95,65 %
20.06.2021 00:04 22,9 C 21,1 C 17,8 C 84 % 1009,2 hPa 0,2 l/m 0 min 2 min 0 W/m 12,9 km/h (3 Bft) 95,74 %
20.06.2021 00:08 22,9 C 21,1 C 18,4 C 86 % 1009,1 hPa 0,6 l/m 0 min 4 min 0 W/m 3,2 km/h (1 Bft) 94,62 %
20.06.2021 00:10 22,9 C 20,6 C 18,4 C 86 % 1009,0 hPa 0,6 l/m 0 min 2 min 0 W/m 3,2 km/h (1 Bft) 97,37 %
20.06.2021 00:12 22,9 C 20,6 C 18,4 C 87 % 1008,6 hPa 0,4 l/m 0 min 2 min 0 W/m 6,4 km/h (2 Bft) 100,00 %
20.06.2021 00:14 22,9 C 20,6 C 18,4 C 87 % 1008,5 hPa 0,2 l/m 0 min 2 min 0 W/m 6,4 km/h (2 Bft) 97,87 %
20.06.2021 00:16 22,8 C 20,6 C 17,8 C 88 % 1008,7 hPa 0,2 l/m 0 min 2 min 0 W/m 6,4 km/h (2 Bft) 97,73 %
20.06.2021 00:18 22,6 C 20,0 C 17,8 C 88 % 1009,0 hPa 0,2 l/m 0 min 2 min 0 W/m 6,4 km/h (2 Bft) 93,88 %
20.06.2021 00:20 22,5 C 20,0 C 17,8 C 89 % 1009,4 hPa 0,0 l/m 0 min 2 min 0 W/m 12,9 km/h (3 Bft) 95,74 %
20.06.2021 00:22 22,4 C 20,0 C 18,4 C 89 % 1009,4 hPa 0,2 l/m 0 min 2 min 0 W/m 12,9 km/h (3 Bft) 95,45 %
20.06.2021 00:24 22,3 C 20,0 C 18,4 C 90 % 1009,4 hPa 0,0 l/m 0 min 2 min 0 W/m 3,2 km/h (1 Bft) 93,62 %
20.06.2021 00:26 22,3 C 20,0 C 18,4 C 91 % 1009,4 hPa 0,0 l/m 0 min 2 min 0 W/m 0,0 km/h (0 Bft) 96,00 %
20.06.2021 00:28 22,3 C 20,0 C 18,4 C 91 % 1009,5 hPa 0,0 l/m 0 min 2 min 0 W/m 6,4 km/h (2 Bft) 94,44 %
20.06.2021 00:30 22,2 C 20,0 C 18,4 C 92 % 1009,5 hPa 0,2 l/m 0 min 2 min 0 W/m 6,4 km/h (2 Bft) 97,37 %
20.06.2021 00:32 22,1 C 20,0 C 17,8 C 92 % 1009,4 hPa 0,0 l/m 0 min 2 min 0 W/m 3,2 km/h (1 Bft) 93,75 %
20.06.2021 00:34 22,0 C 19,4 C 17,8 C 92 % 1009,2 hPa 0,2 l/m 0 min 2 min 0 W/m 6,4 km/h (2 Bft) 95,74 %
20.06.2021 00:36 21,9 C 20,0 C 18,4 C 92 % 1009,0 hPa 0,2 l/m 0 min 2 min 0 W/m 6,4 km/h (2 Bft) 98,15 %
20.06.2021 00:38 21,9 C 19,4 C 18,4 C 92 % 1009,1 hPa 0,0 l/m 0 min 2 min 0 W/m 0,0 km/h (0 Bft) 97,37 %
20.06.2021 00:40 21,8 C 20,0 C 18,4 C 92 % 1009,3 hPa 0,2 l/m 0 min 2 min 0 W/m 0,0 km/h (0 Bft) 97,87 %
20.06.2021 00:42 21,8 C 20,0 C 18,4 C 93 % 1009,3 hPa 0,2 l/m 0 min 2 min 0 W/m 0,0 km/h (0 Bft) 97,92 %
20.06.2021 00:44 21,8 C 20,0 C 18,4 C 93 % 1009,5 hPa 0,2 l/m 0 min 2 min 0 W/m 0,0 km/h (0 Bft) 97,87 %
20.06.2021 00:46 21,8 C 19,4 C 18,4 C 93 % 1009,6 hPa 0,2 l/m 0 min 2 min 0 W/m 3,2 km/h (1 Bft) 96,30 %
20.06.2021 00:48 21,8 C 20,0 C 18,4 C 93 % 1009,6 hPa 0,0 l/m 0 min 2 min 0 W/m 0,0 km/h (0 Bft) 97,37 %
20.06.2021 00:50 21,8 C 20,0 C 18,4 C 93 % 1009,4 hPa 0,2 l/m 0 min 2 min 0 W/m 0,0 km/h (0 Bft) 97,96 %
20.06.2021 00:52 21,8 C 20,0 C 18,4 C 93 % 1009,1 hPa 0,2 l/m 0 min 2 min 0 W/m 3,2 km/h (1 Bft) 97,87 %
20.06.2021 00:54 21,8 C 20,0 C 18,4 C 94 % 1008,9 hPa 0,2 l/m 0 min 2 min 0 W/m 3,2 km/h (1 Bft) 98,11 %
20.06.2021 00:56 21,8 C 20,0 C 18,9 C 94 % 1008,9 hPa 0,0 l/m 0 min 2 min 0 W/m 6,4 km/h (2 Bft) 97,37 %
20.06.2021 00:58 21,8 C 20,0 C 18,4 C 94 % 1008,7 hPa 0,2 l/m 0 min 2 min 0 W/m 6,4 km/h (2 Bft) 97,96 %
20.06.2021 01:00 21,7 C 20,0 C 18,4 C 94 % 1008,5 hPa 0,0 l/m 0 min 2 min 0 W/m 3,2 km/h (1 Bft) 95,74 %
20.06.2021 01:02 21,6 C 20,0 C 18,4 C 94 % 1008,4 hPa 0,0 l/m 0 min 0 min 0 W/m 3,2 km/h (1 Bft) 96,30 %
20.06.2021 01:04 21,6 C 19,4 C 18,4 C 94 % 1008,2 hPa 0,0 l/m 0 min 0 min 0 W/m 6,4 km/h (2 Bft) 97,83 %
20.06.2021 01:06 21,5 C 19,4 C 18,4 C 94 % 1007,9 hPa 0,0 l/m 0 min 0 min 0 W/m 6,4 km/h (2 Bft) 100,00 %
20.06.2021 01:08 21,4 C 19,4 C 17,8 C 94 % 1007,7 hPa 0,0 l/m 0 min 2 min 0 W/m 9,7 km/h (2 Bft) 97,92 %
20.06.2021 01:10 21,4 C 19,4 C 17,8 C 94 % 1007,5 hPa 0,0 l/m 0 min 2 min 0 W/m 6,4 km/h (2 Bft) 100,00 %
20.06.2021 01:12 21,3 C 19,4 C 17,8 C 94 % 1007,7 hPa 0,0 l/m 0 min 2 min 0 W/m 9,7 km/h (2 Bft) 100,00 %
20.06.2021 01:14 21,2 C 19,4 C 17,8 C 94 % 1007,8 hPa 0,0 l/m 0 min 2 min 0 W/m 9,7 km/h (2 Bft) 100,00 %
20.06.2021 01:16 21,1 C 19,4 C 17,8 C 95 % 1007,8 hPa 0,0 l/m 0 min 2 min 0 W/m 6,4 km/h (2 Bft) 97,67 %
20.06.2021 01:18 21,0 C 19,4 C 17,8 C 95 % 1007,8 hPa 0,0 l/m 0 min 0 min 0 W/m 6,4 km/h (2 Bft) 98,00 %
20.06.2021 01:20 21,0 C 19,4 C 17,8 C 95 % 1007,8 hPa 0,0 l/m 0 min 0 min 0 W/m 6,4 km/h (2 Bft) 100,00 %
20.06.2021 01:22 21,0 C 19,4 C 17,8 C 95 % 1007,9 hPa 0,0 l/m 0 min 0 min 0 W/m 3,2 km/h (1 Bft) 100,00 %
20.06.2021 01:24 21,0 C 20,0 C 17,8 C 95 % 1007,8 hPa 0,0 l/m 0 min 0 min 0 W/m 3,2 km/h (1 Bft) 100,00 %
20.06.2021 01:26 21,0 C 20,0 C 18,4 C 95 % 1007,8 hPa 0,0 l/m 0 min 2 min 0 W/m 6,4 km/h (2 Bft) 97,87 %
20.06.2021 01:28 21,0 C 20,0 C 17,8 C 95 % 1007,8 hPa 0,0 l/m 0 min 0 min 0 W/m 3,2 km/h (1 Bft) 100,00 %
20.06.2021 01:30 21,0 C 20,0 C 18,4 C 96 % 1007,7 hPa 0,0 l/m 0 min 0 min 0 W/m 3,2 km/h (1 Bft) 97,96 %
20.06.2021 01:32 21,0 C 20,0 C 18,4 C 96 % 1007,8 hPa 0,0 l/m 0 min 2 min 0 W/m 3,2 km/h (1 Bft) 98,11 %
20.06.2021 01:34 21,0 C 20,0 C 17,8 C 96 % 1007,7 hPa 0,2 l/m 0 min 2 min 0 W/m 6,4 km/h (2 Bft) 100,00 %
20.06.2021 01:36 20,9 C 20,0 C 17,8 C 96 % 1007,5 hPa 0,0 l/m 0 min 2 min 0 W/m 6,4 km/h (2 Bft) 100,00 %
20.06.2021 01:38 20,9 C 20,0 C 17,8 C 96 % 1007,3 hPa 0,0 l/m 0 min 2 min 0 W/m 3,2 km/h (1 Bft) 100,00 %
20.06.2021 01:40 20,9 C 20,0 C 17,8 C 96 % 1007,2 hPa 0,0 l/m 0 min 2 min 0 W/m 6,4 km/h (2 Bft) 100,00 %
20.06.2021 01:42 20,9 C 19,4 C 17,8 C 96 % 1007,1 hPa 0,0 l/m 0 min 0 min 0 W/m 3,2 km/h (1 Bft) 100,00 %
20.06.2021 01:44 20,8 C 19,4 C 17,8 C 96 % 1007,1 hPa 0,0 l/m 0 min 0 min 0 W/m 3,2 km/h (1 Bft) 97,96 %
20.06.2021 01:46 20,8 C 19,4 C 17,8 C 96 % 1007,1 hPa 0,0 l/m 0 min 0 min 0 W/m 3,2 km/h (1 Bft) 100,00 %
20.06.2021 01:48 20,8 C 19,4 C 17,8 C 96 % 1007,2 hPa 0,0 l/m 0 min 0 min 0 W/m 6,4 km/h (2 Bft) 100,00 %
20.06.2021 01:50 20,8 C 20,0 C 17,8 C 96 % 1007,1 hPa 0,0 l/m 0 min 0 min 0 W/m 3,2 km/h (1 Bft) 94,74 %
20.06.2021 01:52 20,8 C 20,0 C 17,8 C 96 % 1007,0 hPa 0,0 l/m 0 min 0 min 0 W/m 3,2 km/h (1 Bft) 100,00 %
20.06.2021 01:54 20,8 C 20,0 C 17,8 C 97 % 1007,0 hPa 0,0 l/m 0 min 0 min 0 W/m 3,2 km/h (1 Bft) 100,00 %
20.06.2021 01:56 20,8 C 20,0 C 18,4 C 97 % 1006,9 hPa 0,0 l/m 0 min 0 min 0 W/m 6,4 km/h (2 Bft) 98,15 %
20.06.2021 01:58 20,8 C 20,0 C 18,4 C 97 % 1006,8 hPa 0,0 l/m 0 min 0 min 0 W/m 3,2 km/h (1 Bft) 100,00 %
20.06.2021 02:00 20,7 C 20,0 C 17,8 C 97 % 1006,7 hPa 0,0 l/m 0 min 0 min 0 W/m 3,2 km/h (1 Bft) 97,96 %
20.06.2021 02:02 20,7 C 20,0 C 17,8 C 97 % 1006,7 hPa 0,0 l/m 0 min 0 min 0 W/m 3,2 km/h (1 Bft) 100,00 %
20.06.2021 02:04 20,7 C 19,4 C 17,8 C 97 % 1006,7 hPa 0,0 l/m 0 min 0 min 0 W/m 6,4 km/h (2 Bft) 100,00 %
20.06.2021 02:06 20,6 C 19,4 C 17,8 C 97 % 1006,8 hPa 0,0 l/m 0 min 0 min 0 W/m 3,2 km/h (1 Bft) 100,00 %
20.06.2021 02:08 20,6 C 19,4 C 17,8 C 97 % 1006,8 hPa 0,0 l/m 0 min 0 min 0 W/m 3,2 km/h (1 Bft) 97,92 %
20.06.2021 02:10 20,6 C 19,4 C 17,8 C 97 % 1006,8 hPa 0,0 l/m 0 min 0 min 0 W/m 3,2 km/h (1 Bft) 97,87 %
20.06.2021 02:12 20,6 C 19,4 C 17,8 C 97 % 1006,9 hPa 0,0 l/m 0 min 0 min 0 W/m 6,4 km/h (2 Bft) 96,30 %
20.06.2021 02:14 20,6 C 19,4 C 17,8 C 97 % 1006,8 hPa 0,0 l/m 0 min 0 min 0 W/m 6,4 km/h (2 Bft) 97,96 %
20.06.2021 02:16 20,5 C 19,4 C 17,8 C 97 % 1006,9 hPa 0,0 l/m 0 min 0 min 0 W/m 6,4 km/h (2 Bft) 97,96 %
20.06.2021 02:18 20,5 C 19,4 C 17,8 C 97 % 1007,0 hPa 0,0 l/m 0 min 0 min 0 W/m 6,4 km/h (2 Bft) 97,14 %
20.06.2021 02:20 20,5 C 19,4 C 17,8 C 97 % 1007,1 hPa 0,0 l/m 0 min 0 min 0 W/m 6,4 km/h (2 Bft) 98,15 %
20.06.2021 02:22 20,5 C 19,4 C 17,8 C 97 % 1007,0 hPa 0,0 l/m 0 min 0 min 0 W/m 6,4 km/h (2 Bft) 98,00 %
20.06.2021 02:24 20,5 C 19,4 C 17,8 C 97 % 1006,9 hPa 0,0 l/m 0 min 0 min 0 W/m 9,7 km/h (2 Bft) 97,92 %
20.06.2021 02:26 20,5 C 19,4 C 17,8 C 97 % 1006,7 hPa 0,0 l/m 0 min 0 min 0 W/m 6,4 km/h (2 Bft) 97,87 %
20.06.2021 02:28 20,5 C 19,4 C 17,8 C 97 % 1006,6 hPa 0,0 l/m 0 min 0 min 0 W/m 6,4 km/h (2 Bft) 97,14 %
20.06.2021 02:30 20,5 C 19,4 C 17,8 C 97 % 1006,4 hPa 0,0 l/m 0 min 0 min 0 W/m 3,2 km/h (1 Bft) 96,30 %
20.06.2021 02:32 20,5 C 19,4 C 17,8 C 97 % 1006,4 hPa 0,0 l/m 0 min 0 min 0 W/m 3,2 km/h (1 Bft) 96,00 %
20.06.2021 02:34 20,5 C 19,4 C 17,8 C 97 % 1006,3 hPa 0,0 l/m 0 min 0 min 0 W/m 6,4 km/h (2 Bft) 97,92 %
20.06.2021 02:36 20,5 C 19,4 C 17,8 C 97 % 1006,3 hPa 0,0 l/m 0 min 0 min 0 W/m 6,4 km/h (2 Bft) 97,14 %
20.06.2021 02:38 20,5 C 19,4 C 17,8 C 97 % 1006,4 hPa 0,0 l/m 0 min 0 min 0 W/m 3,2 km/h (1 Bft) 98,18 %
20.06.2021 02:40 20,5 C 19,4 C 17,8 C 97 % 1006,3 hPa 0,0 l/m 0 min 0 min 0 W/m 6,4 km/h (2 Bft) 97,87 %
20.06.2021 02:42 20,5 C 19,4 C 17,8 C 98 % 1006,4 hPa 0,0 l/m 0 min 0 min 0 W/m 3,2 km/h (1 Bft) 98,00 %
20.06.2021 02:44 20,5 C 19,4 C 17,8 C 98 % 1006,3 hPa 0,0 l/m 0 min 0 min 0 W/m 3,2 km/h (1 Bft) 97,22 %
20.06.2021 02:46 20,5 C 19,4 C 17,8 C 97 % 1006,3 hPa 0,0 l/m 0 min 0 min 0 W/m 3,2 km/h (1 Bft) 97,87 %
20.06.2021 02:48 20,5 C 19,4 C 17,8 C 98 % 1006,3 hPa 0,0 l/m 0 min 0 min 0 W/m 6,4 km/h (2 Bft) 97,83 %
20.06.2021 02:50 20,5 C 20,0 C 17,8 C 98 % 1006,2 hPa 0,0 l/m 0 min 0 min 0 W/m 3,2 km/h (1 Bft) 97,87 %
20.06.2021 02:52 20,5 C 20,0 C 17,8 C 98 % 1006,2 hPa 0,0 l/m 0 min 0 min 0 W/m 6,4 km/h (2 Bft) 97,87 %
20.06.2021 02:54 20,5 C 20,0 C 17,8 C 98 % 1006,1 hPa 0,0 l/m 0 min 0 min 0 W/m 6,4 km/h (2 Bft) 97,87 %
20.06.2021 02:56 20,5 C 20,0 C 17,8 C 98 % 1006,0 hPa 0,0 l/m 0 min 0 min 0 W/m 6,4 km/h (2 Bft) 100,00 %
20.06.2021 02:58 20,5 C 20,0 C 17,8 C 98 % 1006,0 hPa 0,0 l/m 0 min 0 min 0 W/m 6,4 km/h (2 Bft) 100,00 %
20.06.2021 03:00 20,5 C 20,0 C 17,8 C 98 % 1006,1 hPa 0,0 l/m 0 min 0 min 0 W/m 9,7 km/h (2 Bft) 100,00 %
20.06.2021 03:02 20,5 C 20,0 C 17,8 C 98 % 1006,1 hPa 0,0 l/m 0 min 0 min 0 W/m 12,9 km/h (3 Bft) 97,87 %
20.06.2021 03:04 20,5 C 20,0 C 17,8 C 98 % 1006,1 hPa 0,0 l/m 0 min 0 min 0 W/m 6,4 km/h (2 Bft) 100,00 %
20.06.2021 03:06 20,5 C 20,0 C 17,8 C 98 % 1006,1 hPa 0,0 l/m 0 min 0 min 0 W/m 9,7 km/h (2 Bft) 97,87 %
20.06.2021 03:08 20,5 C 20,0 C 17,8 C 98 % 1006,2 hPa 0,0 l/m 0 min 0 min 0 W/m 6,4 km/h (2 Bft) 98,00 %
20.06.2021 03:10 20,4 C 20,0 C 17,8 C 98 % 1006,1 hPa 0,0 l/m 0 min 0 min 0 W/m 9,7 km/h (2 Bft) 97,87 %
20.06.2021 03:12 20,4 C 20,0 C 17,8 C 98 % 1006,2 hPa 0,0 l/m 0 min 0 min 0 W/m 6,4 km/h (2 Bft) 100,00 %
20.06.2021 03:14 20,4 C 20,0 C 17,8 C 98 % 1006,1 hPa 0,0 l/m 0 min 0 min 0 W/m 9,7 km/h (2 Bft) 97,22 %
20.06.2021 03:16 20,4 C 20,0 C 17,8 C 97 % 1006,2 hPa 0,0 l/m 0 min 0 min 0 W/m 9,7 km/h (2 Bft) 97,87 %
20.06.2021 03:18 20,4 C 20,0 C 17,8 C 97 % 1006,2 hPa 0,0 l/m 0 min 0 min 0 W/m 6,4 km/h (2 Bft) 97,87 %
20.06.2021 03:20 20,4 C 20,0 C 17,8 C 97 % 1006,1 hPa 0,0 l/m 0 min 0 min 0 W/m 6,4 km/h (2 Bft) 97,87 %
20.06.2021 03:22 20,3 C 20,0 C 17,8 C 97 % 1006,1 hPa 0,0 l/m 0 min 0 min 0 W/m 6,4 km/h (2 Bft) 95,65 %
20.06.2021 03:24 20,3 C 19,4 C 17,8 C 97 % 1006,1 hPa 0,0 l/m 0 min 0 min 0 W/m 6,4 km/h (2 Bft) 97,87 %
20.06.2021 03:26 20,3 C 19,4 C 17,8 C 97 % 1006,1 hPa 0,0 l/m 0 min 0 min 0 W/m 12,9 km/h (3 Bft) 95,74 %
20.06.2021 03:28 20,3 C 19,4 C 17,8 C 97 % 1006,1 hPa 0,0 l/m 0 min 0 min 0 W/m 6,4 km/h (2 Bft) 97,87 %
20.06.2021 03:30 20,3 C 19,4 C 17,8 C 97 % 1006,1 hPa 0,0 l/m 0 min 0 min 0 W/m 9,7 km/h (2 Bft) 93,62 %
20.06.2021 03:32 20,3 C 19,4 C 17,8 C 97 % 1006,1 hPa 0,0 l/m 0 min 0 min 0 W/m 9,7 km/h (2 Bft) 97,87 %
20.06.2021 03:34 20,3 C 19,4 C 17,8 C 97 % 1006,2 hPa 0,0 l/m 0 min 0 min 0 W/m 9,7 km/h (2 Bft) 98,15 %
20.06.2021 03:36 20,3 C 19,4 C 17,3 C 97 % 1006,2 hPa 0,0 l/m 0 min 0 min 0 W/m 16,1 km/h (3 Bft) 97,96 %
20.06.2021 03:38 20,2 C 19,4 C 17,3 C 97 % 1006,2 hPa 0,0 l/m 0 min 0 min 0 W/m 16,1 km/h (3 Bft) 95,92 %
20.06.2021 03:40 20,2 C 19,4 C 17,3 C 96 % 1006,1 hPa 0,0 l/m 0 min 0 min 0 W/m 12,9 km/h (3 Bft) 97,87 %
20.06.2021 03:42 20,2 C 19,4 C 17,8 C 96 % 1005,9 hPa 0,0 l/m 0 min 0 min 0 W/m 16,1 km/h (3 Bft) 100,00 %
20.06.2021 03:44 20,2 C 19,4 C 17,3 C 96 % 1005,9 hPa 0,0 l/m 0 min 0 min 0 W/m 9,7 km/h (2 Bft) 96,30 %
20.06.2021 03:46 20,2 C 19,4 C 17,3 C 96 % 1005,9 hPa 0,0 l/m 0 min 0 min 0 W/m 12,9 km/h (3 Bft) 98,00 %
20.06.2021 03:48 20,2 C 19,4 C 17,3 C 96 % 1005,8 hPa 0,0 l/m 0 min 0 min 0 W/m 6,4 km/h (2 Bft) 97,92 %
20.06.2021 03:50 20,2 C 19,4 C 17,3 C 96 % 1005,8 hPa 0,0 l/m 0 min 0 min 0 W/m 9,7 km/h (2 Bft) 97,14 %
20.06.2021 03:52 20,1 C 19,4 C 17,3 C 96 % 1005,9 hPa 0,0 l/m 0 min 0 min 0 W/m 19,3 km/h (3 Bft) 98,15 %
20.06.2021 03:54 20,1 C 19,4 C 17,3 C 96 % 1005,8 hPa 0,0 l/m 0 min 0 min 0 W/m 12,9 km/h (3 Bft) 95,74 %
20.06.2021 03:56 20,1 C 19,4 C 17,3 C 96 % 1005,7 hPa 0,0 l/m 0 min 0 min 0 W/m 12,9 km/h (3 Bft) 95,74 %
20.06.2021 03:58 20,1 C 19,4 C 17,3 C 96 % 1005,8 hPa 0,0 l/m 0 min 0 min 0 W/m 9,7 km/h (2 Bft) 96,00 %
20.06.2021 04:00 20,1 C 19,4 C 17,3 C 96 % 1005,8 hPa 0,0 l/m 0 min 0 min 0 W/m 6,4 km/h (2 Bft) 97,92 %
20.06.2021 04:02 20,1 C 19,4 C 17,3 C 96 % 1005,8 hPa 0,0 l/m 0 min 0 min 0 W/m 12,9 km/h (3 Bft) 100,00 %
20.06.2021 04:04 20,1 C 19,4 C 17,3 C 96 % 1005,8 hPa 0,0 l/m 0 min 0 min 0 W/m 6,4 km/h (2 Bft) 98,15 %
20.06.2021 04:06 20,1 C 19,4 C 17,3 C 96 % 1005,8 hPa 0,0 l/m 0 min 0 min 0 W/m 12,9 km/h (3 Bft) 98,00 %
20.06.2021 04:08 20,1 C 19,4 C 17,3 C 95 % 1005,8 hPa 0,0 l/m 0 min 0 min 0 W/m 6,4 km/h (2 Bft) 95,74 %
20.06.2021 04:10 20,1 C 19,4 C 17,3 C 95 % 1005,8 hPa 0,0 l/m 0 min 0 min 0 W/m 6,4 km/h (2 Bft) 95,74 %
20.06.2021 04:12 20,1 C 19,4 C 17,3 C 95 % 1005,8 hPa 0,0 l/m 0 min 0 min 0 W/m 16,1 km/h (3 Bft) 93,75 %
20.06.2021 04:14 20,1 C 19,4 C 17,3 C 95 % 1005,8 hPa 0,0 l/m 0 min 0 min 0 W/m 9,7 km/h (2 Bft) 97,14 %
20.06.2021 04:16 20,0 C 19,4 C 17,3 C 95 % 1006,0 hPa 0,0 l/m 0 min 0 min 0 W/m 12,9 km/h (3 Bft) 98,15 %
20.06.2021 04:18 20,1 C 19,4 C 17,3 C 95 % 1006,1 hPa 0,0 l/m 0 min 0 min 0 W/m 9,7 km/h (2 Bft) 98,00 %
20.06.2021 04:20 20,1 C 19,4 C 17,3 C 95 % 1006,3 hPa 0,0 l/m 0 min 0 min 0 W/m 16,1 km/h (3 Bft) 97,92 %
20.06.2021 04:22 20,1 C 19,4 C 17,3 C 95 % 1006,4 hPa 0,0 l/m 0 min 0 min 0 W/m 19,3 km/h (3 Bft) 97,14 %
20.06.2021 04:24 20,0 C 19,4 C 17,3 C 95 % 1006,5 hPa 0,0 l/m 0 min 0 min 0 W/m 16,1 km/h (3 Bft) 96,30 %
20.06.2021 04:26 20,1 C 19,4 C 17,3 C 95 % 1006,6 hPa 0,0 l/m 0 min 0 min 0 W/m 16,1 km/h (3 Bft) 98,00 %
20.06.2021 04:28 20,0 C 19,4 C 17,3 C 95 % 1006,6 hPa 0,0 l/m 0 min 0 min 0 W/m 16,1 km/h (3 Bft) 97,92 %
20.06.2021 04:30 20,0 C 19,4 C 17,3 C 95 % 1006,8 hPa 0,0 l/m 0 min 0 min 0 W/m 22,5 km/h (4 Bft) 97,22 %
20.06.2021 04:32 20,0 C 19,4 C 17,3 C 95 % 1006,9 hPa 0,0 l/m 0 min 0 min 0 W/m 16,1 km/h (3 Bft) 98,15 %
20.06.2021 04:34 20,0 C 18,9 C 17,3 C 96 % 1007,0 hPa 0,0 l/m 0 min 0 min 0 W/m 12,9 km/h (3 Bft) 95,92 %
20.06.2021 04:36 20,0 C 18,9 C 17,3 C 96 % 1007,0 hPa 0,0 l/m 0 min 0 min 0 W/m 12,9 km/h (3 Bft) 93,88 %
20.06.2021 04:38 20,0 C 18,9 C 17,3 C 96 % 1006,9 hPa 0,0 l/m 0 min 0 min 0 W/m 12,9 km/h (3 Bft) 100,00 %
20.06.2021 04:40 20,0 C 18,9 C 17,3 C 96 % 1006,9 hPa 0,0 l/m 0 min 0 min 0 W/m 12,9 km/h (3 Bft) 97,87 %
20.06.2021 04:42 20,0 C 18,9 C 17,3 C 96 % 1006,9 hPa 0,0 l/m 0 min 0 min 0 W/m 9,7 km/h (2 Bft) 96,30 %
20.06.2021 04:44 20,0 C 18,9 C 17,3 C 96 % 1006,9 hPa 0,0 l/m 0 min 0 min 0 W/m 22,5 km/h (4 Bft) 94,00 %
20.06.2021 04:46 20,0 C 18,9 C 17,3 C 96 % 1007,0 hPa 0,0 l/m 0 min 0 min 0 W/m 12,9 km/h (3 Bft) 97,92 %
20.06.2021 04:48 20,0 C 18,9 C 17,3 C 96 % 1007,0 hPa 0,0 l/m 0 min 0 min 0 W/m 12,9 km/h (3 Bft) 97,67 %
20.06.2021 04:50 20,0 C 18,9 C 17,3 C 96 % 1007,1 hPa 0,0 l/m 0 min 0 min 0 W/m 12,9 km/h (3 Bft) 98,04 %
20.06.2021 04:52 20,0 C 19,4 C 17,3 C 96 % 1007,2 hPa 0,0 l/m 0 min 0 min 0 W/m 12,9 km/h (3 Bft) 94,29 %
20.06.2021 04:54 20,0 C 19,4 C 17,3 C 96 % 1007,2 hPa 0,0 l/m 0 min 0 min 0 W/m 12,9 km/h (3 Bft) 96,23 %
20.06.2021 04:56 20,0 C 19,4 C 17,3 C 96 % 1007,3 hPa 0,0 l/m 0 min 0 min 0 W/m 19,3 km/h (3 Bft) 94,00 %
20.06.2021 04:58 20,0 C 19,4 C 17,8 C 96 % 1007,4 hPa 0,0 l/m 0 min 0 min 0 W/m 12,9 km/h (3 Bft) 95,92 %
20.06.2021 05:00 20,1 C 19,4 C 17,8 C 96 % 1007,3 hPa 0,0 l/m 0 min 0 min 0 W/m 16,1 km/h (3 Bft) 94,29 %
20.06.2021 05:02 20,1 C 19,4 C 17,8 C 96 % 1007,5 hPa 0,0 l/m 0 min 0 min 0 W/m 25,7 km/h (4 Bft) 95,74 %
20.06.2021 05:04 20,1 C 19,4 C 17,8 C 96 % 1007,5 hPa 0,0 l/m 0 min 0 min 0 W/m 19,3 km/h (3 Bft) 96,23 %
20.06.2021 05:06 20,1 C 19,4 C 17,8 C 96 % 1007,5 hPa 0,0 l/m 0 min 0 min 0 W/m 12,9 km/h (3 Bft) 98,00 %
20.06.2021 05:08 20,2 C 19,4 C 17,8 C 96 % 1007,5 hPa 0,0 l/m 0 min 0 min 0 W/m 19,3 km/h (3 Bft) 91,84 %
20.06.2021 05:10 20,2 C 19,4 C 17,8 C 96 % 1007,5 hPa 0,0 l/m 0 min 0 min 0 W/m 19,3 km/h (3 Bft) 94,29 %
20.06.2021 05:12 20,3 C 20,0 C 17,8 C 96 % 1007,5 hPa 0,0 l/m 0 min 0 min 0 W/m 19,3 km/h (3 Bft) 96,23 %
20.06.2021 05:14 20,3 C 20,0 C 17,8 C 96 % 1007,5 hPa 0,0 l/m 0 min 0 min 0 W/m 19,3 km/h (3 Bft) 96,00 %
20.06.2021 05:16 20,3 C 20,0 C 17,8 C 96 % 1007,5 hPa 0,0 l/m 0 min 0 min 0 W/m 16,1 km/h (3 Bft) 93,88 %
20.06.2021 05:18 20,3 C 20,0 C 17,8 C 96 % 1007,5 hPa 0,0 l/m 0 min 0 min 0 W/m 12,9 km/h (3 Bft) 97,14 %
20.06.2021 05:20 20,4 C 19,4 C 17,8 C 96 % 1007,5 hPa 0,0 l/m 0 min 0 min 0 W/m 12,9 km/h (3 Bft) 94,44 %
20.06.2021 05:22 20,4 C 19,4 C 17,8 C 95 % 1007,5 hPa 0,0 l/m 0 min 0 min 0 W/m 38,6 km/h (5 Bft) 91,84 %
20.06.2021 05:24 20,4 C 19,4 C 17,8 C 95 % 1007,4 hPa 0,0 l/m 0 min 0 min 0 W/m 19,3 km/h (3 Bft) 98,00 %
20.06.2021 05:26 20,3 C 19,4 C 17,8 C 95 % 1007,4 hPa 0,0 l/m 0 min 0 min 0 W/m 22,5 km/h (4 Bft) 93,48 %
20.06.2021 05:28 20,3 C 19,4 C 17,8 C 95 % 1007,4 hPa 0,0 l/m 0 min 0 min 0 W/m 32,2 km/h (5 Bft) 94,44 %
20.06.2021 05:30 20,3 C 19,4 C 17,8 C 94 % 1007,5 hPa 0,0 l/m 0 min 0 min 0 W/m 25,7 km/h (4 Bft) 96,23 %
20.06.2021 05:32 20,3 C 19,4 C 17,8 C 94 % 1007,5 hPa 0,0 l/m 0 min 0 min 0 W/m 22,5 km/h (4 Bft) 97,96 %
20.06.2021 05:34 20,3 C 19,4 C 18,4 C 94 % 1007,5 hPa 0,0 l/m 0 min 0 min 0 W/m 19,3 km/h (3 Bft) 96,00 %
20.06.2021 05:36 20,3 C 19,4 C 18,4 C 94 % 1007,5 hPa 0,0 l/m 0 min 0 min 0 W/m 29,0 km/h (5 Bft) 97,14 %
20.06.2021 05:38 20,3 C 19,4 C 18,4 C 94 % 1007,6 hPa 0,0 l/m 0 min 0 min 0 W/m 25,7 km/h (4 Bft) 96,23 %
20.06.2021 05:40 20,3 C 19,4 C 18,4 C 94 % 1007,5 hPa 0,0 l/m 0 min 0 min 3 W/m 19,3 km/h (3 Bft) 97,87 %
20.06.2021 05:42 20,3 C 19,4 C 18,4 C 94 % 1007,5 hPa 0,0 l/m 0 min 0 min 5 W/m 12,9 km/h (3 Bft) 100,00 %
20.06.2021 05:44 20,3 C 19,4 C 18,4 C 94 % 1007,6 hPa 0,0 l/m 0 min 0 min 5 W/m 19,3 km/h (3 Bft) 97,96 %
20.06.2021 05:46 20,3 C 19,4 C 18,4 C 94 % 1007,6 hPa 0,0 l/m 0 min 0 min 5 W/m 12,9 km/h (3 Bft) 100,00 %
20.06.2021 05:48 20,3 C 19,4 C 18,4 C 94 % 1007,6 hPa 0,0 l/m 0 min 0 min 5 W/m 12,9 km/h (3 Bft) 98,11 %
20.06.2021 05:50 20,2 C 19,4 C 18,4 C 94 % 1007,6 hPa 0,0 l/m 0 min 0 min 6 W/m 16,1 km/h (3 Bft) 97,87 %
20.06.2021 05:52 20,2 C 19,4 C 18,4 C 94 % 1007,6 hPa 0,0 l/m 0 min 0 min 7 W/m 29,0 km/h (5 Bft) 100,00 %
20.06.2021 05:54 20,1 C 19,4 C 18,4 C 94 % 1007,6 hPa 0,0 l/m 0 min 0 min 7 W/m 16,1 km/h (3 Bft) 100,00 %
20.06.2021 05:56 20,1 C 19,4 C 18,4 C 94 % 1007,5 hPa 0,0 l/m 0 min 0 min 7 W/m 19,3 km/h (3 Bft) 100,00 %
20.06.2021 05:58 20,1 C 18,9 C 18,4 C 94 % 1007,5 hPa 0,0 l/m 0 min 0 min 7 W/m 12,9 km/h (3 Bft) 100,00 %
20.06.2021 06:00 20,0 C 18,9 C 18,4 C 93 % 1007,5 hPa 0,0 l/m 0 min 0 min 8 W/m 22,5 km/h (4 Bft) 97,87 %
20.06.2021 06:02 20,0 C 18,9 C 17,8 C 93 % 1007,6 hPa 0,0 l/m 0 min 0 min 9 W/m 19,3 km/h (3 Bft) 96,23 %
20.06.2021 06:04 20,0 C 18,9 C 17,8 C 93 % 1007,6 hPa 0,0 l/m 0 min 0 min 9 W/m 19,3 km/h (3 Bft) 98,00 %
20.06.2021 06:08 19,9 C 18,9 C 17,8 C 93 % 1007,6 hPa 0,0 l/m 0 min 0 min 10 W/m 16,1 km/h (3 Bft) 96,88 %
20.06.2021 06:10 19,9 C 18,9 C 17,8 C 93 % 1007,6 hPa 0,0 l/m 0 min 0 min 11 W/m 12,9 km/h (3 Bft) 97,14 %
20.06.2021 06:12 19,9 C 18,9 C 17,8 C 93 % 1007,6 hPa 0,0 l/m 0 min 0 min 12 W/m 16,1 km/h (3 Bft) 96,23 %
20.06.2021 06:14 19,8 C 18,9 C 17,8 C 93 % 1007,7 hPa 0,0 l/m 0 min 0 min 13 W/m 19,3 km/h (3 Bft) 98,00 %
20.06.2021 06:16 19,8 C 18,9 C 17,8 C 93 % 1007,7 hPa 0,0 l/m 0 min 0 min 15 W/m 16,1 km/h (3 Bft) 95,92 %
20.06.2021 06:18 19,8 C 18,9 C 17,8 C 93 % 1007,7 hPa 0,0 l/m 0 min 0 min 18 W/m 35,4 km/h (5 Bft) 100,00 %
20.06.2021 06:20 19,8 C 18,9 C 17,8 C 93 % 1007,8 hPa 0,0 l/m 0 min 0 min 24 W/m 29,0 km/h (5 Bft) 96,23 %
20.06.2021 06:22 19,8 C 18,9 C 17,8 C 93 % 1007,8 hPa 0,0 l/m 0 min 0 min 32 W/m 25,7 km/h (4 Bft) 96,00 %
20.06.2021 06:24 19,8 C 18,9 C 18,4 C 93 % 1007,8 hPa 0,0 l/m 0 min 0 min 36 W/m 16,1 km/h (3 Bft) 96,00 %
20.06.2021 06:25 19,8 C 18,9 C 18,4 C 93 % 1007,8 hPa 0,0 l/m 0 min 0 min 35 W/m 25,7 km/h (4 Bft) 97,37 %
20.06.2021 06:28 19,8 C 19,4 C 18,4 C 93 % 1007,8 hPa 0,0 l/m 0 min 0 min 33 W/m 16,1 km/h (3 Bft) 97,92 %
20.06.2021 06:30 19,8 C 19,4 C 18,4 C 93 % 1007,8 hPa 0,0 l/m 0 min 0 min 35 W/m 22,5 km/h (4 Bft) 97,87 %
20.06.2021 06:32 19,8 C 18,9 C 18,4 C 93 % 1007,8 hPa 0,0 l/m 0 min 0 min 24 W/m 12,9 km/h (3 Bft) 97,87 %
20.06.2021 06:34 19,8 C 18,9 C 18,4 C 93 % 1007,7 hPa 0,0 l/m 0 min 0 min 26 W/m 19,3 km/h (3 Bft) 96,30 %
20.06.2021 06:36 19,8 C 18,9 C 18,4 C 93 % 1007,8 hPa 0,0 l/m 0 min 0 min 29 W/m 12,9 km/h (3 Bft) 97,87 %
20.06.2021 06:38 19,8 C 18,9 C 18,4 C 93 % 1007,8 hPa 0,0 l/m 0 min 0 min 32 W/m 22,5 km/h (4 Bft) 97,87 %
20.06.2021 06:40 19,8 C 19,4 C 18,4 C 93 % 1007,8 hPa 0,0 l/m 0 min 0 min 35 W/m 12,9 km/h (3 Bft) 97,87 %
20.06.2021 06:42 19,8 C 19,4 C 18,4 C 93 % 1007,8 hPa 0,0 l/m 0 min 0 min 39 W/m 29,0 km/h (5 Bft) 97,87 %
20.06.2021 06:44 19,9 C 19,4 C 18,4 C 93 % 1007,8 hPa 0,0 l/m 0 min 0 min 44 W/m 12,9 km/h (3 Bft) 97,87 %
20.06.2021 06:46 19,9 C 19,4 C 18,4 C 93 % 1007,9 hPa 0,0 l/m 0 min 0 min 48 W/m 16,1 km/h (3 Bft) 100,00 %
20.06.2021 06:48 19,9 C 19,4 C 18,4 C 93 % 1007,9 hPa 0,0 l/m 0 min 0 min 53 W/m 25,7 km/h (4 Bft) 100,00 %
20.06.2021 06:50 19,9 C 19,4 C 18,4 C 92 % 1008,0 hPa 0,0 l/m 0 min 0 min 56 W/m 32,2 km/h (5 Bft) 95,65 %
20.06.2021 06:52 19,9 C 19,4 C 18,4 C 92 % 1008,0 hPa 0,0 l/m 0 min 0 min 58 W/m 22,5 km/h (4 Bft) 100,00 %
20.06.2021 06:54 19,9 C 19,4 C 18,4 C 92 % 1008,0 hPa 0,0 l/m 0 min 0 min 62 W/m 19,3 km/h (3 Bft) 100,00 %
20.06.2021 06:56 19,9 C 19,4 C 18,4 C 92 % 1008,0 hPa 0,0 l/m 0 min 0 min 63 W/m 16,1 km/h (3 Bft) 97,87 %
20.06.2021 06:58 19,9 C 19,4 C 18,4 C 92 % 1008,0 hPa 0,0 l/m 0 min 0 min 64 W/m 19,3 km/h (3 Bft) 97,87 %
20.06.2021 07:00 19,9 C 19,4 C 18,4 C 92 % 1008,1 hPa 0,0 l/m 0 min 0 min 66 W/m 29,0 km/h (5 Bft) 100,00 %
20.06.2021 07:02 20,0 C 19,4 C 18,4 C 92 % 1008,1 hPa 0,0 l/m 0 min 0 min 69 W/m 22,5 km/h (4 Bft) 100,00 %
20.06.2021 07:04 20,0 C 19,4 C 18,9 C 92 % 1008,2 hPa 0,0 l/m 0 min 0 min 84 W/m 35,4 km/h (5 Bft) 97,83 %
20.06.2021 07:06 20,0 C 19,4 C 18,9 C 92 % 1008,2 hPa 0,0 l/m 0 min 0 min 79 W/m 25,7 km/h (4 Bft) 98,31 %
20.06.2021 07:08 20,0 C 19,4 C 18,9 C 92 % 1008,2 hPa 0,0 l/m 0 min 0 min 83 W/m 29,0 km/h (5 Bft) 100,00 %
20.06.2021 07:10 20,1 C 19,4 C 18,9 C 91 % 1008,2 hPa 0,0 l/m 0 min 0 min 72 W/m 25,7 km/h (4 Bft) 100,00 %
20.06.2021 07:12 20,1 C 19,4 C 18,9 C 91 % 1008,2 hPa 0,0 l/m 0 min 0 min 65 W/m 22,5 km/h (4 Bft) 97,87 %
20.06.2021 07:14 20,1 C 20,0 C 18,9 C 91 % 1008,2 hPa 0,0 l/m 0 min 0 min 74 W/m 38,6 km/h (5 Bft) 100,00 %
20.06.2021 07:16 20,2 C 20,0 C 18,9 C 90 % 1008,2 hPa 0,0 l/m 0 min 0 min 70 W/m 22,5 km/h (4 Bft) 97,83 %
20.06.2021 07:18 20,2 C 20,0 C 18,9 C 90 % 1008,3 hPa 0,0 l/m 0 min 0 min 99 W/m 19,3 km/h (3 Bft) 100,00 %
20.06.2021 07:20 20,3 C 20,0 C 18,9 C 90 % 1008,2 hPa 0,0 l/m 0 min 0 min 108 W/m 25,7 km/h (4 Bft) 100,00 %
20.06.2021 07:22 20,3 C 20,0 C 18,9 C 90 % 1008,3 hPa 0,0 l/m 0 min 0 min 117 W/m 35,4 km/h (5 Bft) 97,87 %
20.06.2021 07:24 20,3 C 20,0 C 18,9 C 89 % 1008,3 hPa 0,0 l/m 0 min 0 min 124 W/m 22,5 km/h (4 Bft) 100,00 %
20.06.2021 07:26 20,3 C 20,0 C 18,9 C 89 % 1008,4 hPa 0,0 l/m 0 min 0 min 118 W/m 16,1 km/h (3 Bft) 100,00 %
20.06.2021 07:28 20,4 C 20,0 C 18,9 C 89 % 1008,4 hPa 0,0 l/m 0 min 0 min 102 W/m 22,5 km/h (4 Bft) 100,00 %
20.06.2021 07:30 20,4 C 20,0 C 18,9 C 89 % 1008,4 hPa 0,0 l/m 0 min 0 min 94 W/m 22,5 km/h (4 Bft) 100,00 %
20.06.2021 07:32 20,4 C 20,0 C 18,9 C 89 % 1008,4 hPa 0,0 l/m 0 min 0 min 93 W/m 22,5 km/h (4 Bft) 97,87 %
20.06.2021 07:34 20,4 C 20,0 C 18,9 C 89 % 1008,5 hPa 0,0 l/m 0 min 0 min 91 W/m 32,2 km/h (5 Bft) 100,00 %
20.06.2021 07:36 20,4 C 20,0 C 18,9 C 88 % 1008,5 hPa 0,0 l/m 0 min 0 min 89 W/m 35,4 km/h (5 Bft) 100,00 %
20.06.2021 07:38 20,4 C 20,0 C 18,9 C 88 % 1008,4 hPa 0,0 l/m 0 min 0 min 89 W/m 16,1 km/h (3 Bft) 100,00 %
20.06.2021 07:40 20,4 C 20,0 C 18,9 C 88 % 1008,4 hPa 0,0 l/m 0 min 0 min 144 W/m 29,0 km/h (5 Bft) 97,87 %
20.06.2021 07:42 20,4 C 20,0 C 18,9 C 88 % 1008,4 hPa 0,0 l/m 2 min 0 min 219 W/m 25,7 km/h (4 Bft) 100,00 %
20.06.2021 07:44 20,4 C 20,0 C 18,9 C 88 % 1008,5 hPa 0,0 l/m 2 min 0 min 243 W/m 16,1 km/h (3 Bft) 97,87 %
20.06.2021 07:46 20,4 C 20,0 C 18,9 C 88 % 1008,4 hPa 0,0 l/m 0 min 0 min 172 W/m 12,9 km/h (3 Bft) 97,87 %
20.06.2021 07:48 20,4 C 20,0 C 18,9 C 88 % 1008,4 hPa 0,0 l/m 2 min 0 min 195 W/m 19,3 km/h (3 Bft) 97,83 %
20.06.2021 07:50 20,5 C 20,0 C 18,9 C 88 % 1008,5 hPa 0,0 l/m 2 min 0 min 229 W/m 19,3 km/h (3 Bft) 97,87 %
20.06.2021 07:52 20,5 C 20,0 C 18,9 C 88 % 1008,6 hPa 0,0 l/m 2 min 0 min 294 W/m 25,7 km/h (4 Bft) 97,87 %
20.06.2021 07:54 20,5 C 20,0 C 18,9 C 88 % 1008,5 hPa 0,0 l/m 2 min 0 min 200 W/m 22,5 km/h (4 Bft) 97,87 %
20.06.2021 07:56 20,5 C 20,0 C 18,9 C 87 % 1008,5 hPa 0,0 l/m 0 min 0 min 148 W/m 19,3 km/h (3 Bft) 93,62 %
20.06.2021 07:58 20,6 C 20,0 C 18,9 C 87 % 1008,5 hPa 0,0 l/m 0 min 0 min 133 W/m 29,0 km/h (5 Bft) 97,87 %
20.06.2021 08:00 20,6 C 20,6 C 18,9 C 87 % 1008,6 hPa 0,0 l/m 0 min 0 min 121 W/m 22,5 km/h (4 Bft) 97,83 %
20.06.2021 08:02 20,6 C 20,6 C 19,5 C 87 % 1008,5 hPa 0,0 l/m 2 min 0 min 230 W/m 29,0 km/h (5 Bft) 97,87 %
20.06.2021 08:04 20,7 C 20,6 C 19,5 C 87 % 1008,5 hPa 0,0 l/m 2 min 0 min 292 W/m 19,3 km/h (3 Bft) 93,62 %
20.06.2021 08:06 20,8 C 20,6 C 19,5 C 87 % 1008,6 hPa 0,0 l/m 0 min 0 min 142 W/m 16,1 km/h (3 Bft) 97,87 %
20.06.2021 08:08 20,9 C 20,6 C 19,5 C 87 % 1008,6 hPa 0,0 l/m 0 min 0 min 145 W/m 19,3 km/h (3 Bft) 97,92 %
20.06.2021 08:10 20,9 C 20,6 C 19,5 C 87 % 1008,6 hPa 0,0 l/m 0 min 0 min 141 W/m 22,5 km/h (4 Bft) 97,87 %
20.06.2021 08:12 20,9 C 20,6 C 19,5 C 86 % 1008,6 hPa 0,0 l/m 0 min 0 min 119 W/m 29,0 km/h (5 Bft) 93,48 %
20.06.2021 08:14 20,9 C 20,6 C 19,5 C 86 % 1008,5 hPa 0,0 l/m 0 min 0 min 208 W/m 35,4 km/h (5 Bft) 97,87 %
20.06.2021 08:16 20,9 C 21,1 C 19,5 C 86 % 1008,5 hPa 0,0 l/m 2 min 0 min 373 W/m 22,5 km/h (4 Bft) 97,87 %
20.06.2021 08:18 21,0 C 21,7 C 19,5 C 85 % 1008,5 hPa 0,0 l/m 2 min 0 min 348 W/m 35,4 km/h (5 Bft) 97,87 %
20.06.2021 08:20 21,0 C 21,7 C 19,5 C 85 % 1008,6 hPa 0,0 l/m 2 min 0 min 330 W/m 22,5 km/h (4 Bft) 97,87 %
20.06.2021 08:22 21,1 C 21,7 C 20,0 C 85 % 1008,5 hPa 0,0 l/m 2 min 0 min 415 W/m 19,3 km/h (3 Bft) 95,74 %
20.06.2021 08:24 21,1 C 22,2 C 20,0 C 86 % 1008,6 hPa 0,0 l/m 2 min 0 min 406 W/m 22,5 km/h (4 Bft) 97,83 %
20.06.2021 08:26 21,2 C 22,2 C 20,0 C 85 % 1008,7 hPa 0,0 l/m 2 min 0 min 406 W/m 25,7 km/h (4 Bft) 97,87 %
20.06.2021 08:28 21,2 C 22,2 C 20,0 C 85 % 1008,6 hPa 0,0 l/m 2 min 0 min 407 W/m 25,7 km/h (4 Bft) 97,87 %
20.06.2021 08:30 21,3 C 22,2 C 20,6 C 85 % 1008,6 hPa 0,0 l/m 2 min 0 min 420 W/m 12,9 km/h (3 Bft) 97,87 %
20.06.2021 08:32 21,4 C 22,8 C 20,6 C 85 % 1008,7 hPa 0,0 l/m 2 min 0 min 405 W/m 19,3 km/h (3 Bft) 95,83 %
20.06.2021 08:34 21,4 C 22,8 C 21,1 C 85 % 1008,7 hPa 0,0 l/m 2 min 0 min 308 W/m 12,9 km/h (3 Bft) 97,83 %
20.06.2021 08:36 21,5 C 22,8 C 21,1 C 84 % 1008,7 hPa 0,0 l/m 2 min 0 min 415 W/m 38,6 km/h (5 Bft) 97,87 %
20.06.2021 08:38 21,5 C 22,8 C 21,1 C 84 % 1008,7 hPa 0,0 l/m 2 min 0 min 472 W/m 16,1 km/h (3 Bft) 97,87 %
20.06.2021 08:40 21,5 C 22,8 C 21,1 C 83 % 1008,7 hPa 0,0 l/m 0 min 0 min 107 W/m 19,3 km/h (3 Bft) 95,74 %
20.06.2021 08:42 21,5 C 22,2 C 20,6 C 83 % 1008,7 hPa 0,0 l/m 0 min 0 min 98 W/m 45,1 km/h (6 Bft) 95,74 %
20.06.2021 08:44 21,5 C 22,2 C 20,6 C 83 % 1008,7 hPa 0,0 l/m 0 min 0 min 131 W/m 22,5 km/h (4 Bft) 95,74 %
20.06.2021 08:46 21,5 C 21,7 C 20,6 C 83 % 1008,8 hPa 0,0 l/m 0 min 0 min 167 W/m 19,3 km/h (3 Bft) 95,65 %
20.06.2021 08:48 21,4 C 22,2 C 20,6 C 82 % 1008,8 hPa 0,0 l/m 0 min 0 min 83 W/m 38,6 km/h (5 Bft) 95,74 %
20.06.2021 08:50 21,4 C 22,2 C 20,6 C 82 % 1008,7 hPa 0,0 l/m 0 min 0 min 92 W/m 35,4 km/h (5 Bft) 93,62 %
20.06.2021 08:52 21,4 C 22,8 C 20,6 C 82 % 1008,6 hPa 0,0 l/m 2 min 0 min 513 W/m 35,4 km/h (5 Bft) 93,62 %
20.06.2021 08:54 21,4 C 23,3 C 21,1 C 82 % 1008,6 hPa 0,0 l/m 2 min 0 min 513 W/m 25,7 km/h (4 Bft) 95,74 %
20.06.2021 08:56 21,5 C 23,3 C 21,1 C 81 % 1008,6 hPa 0,0 l/m 2 min 0 min 498 W/m 29,0 km/h (5 Bft) 95,74 %
20.06.2021 08:58 21,6 C 23,9 C 21,7 C 81 % 1008,7 hPa 0,0 l/m 2 min 0 min 500 W/m 22,5 km/h (4 Bft) 95,65 %
20.06.2021 09:00 21,7 C 24,4 C 21,7 C 81 % 1008,7 hPa 0,0 l/m 2 min 0 min 510 W/m 19,3 km/h (3 Bft) 95,74 %
20.06.2021 09:02 21,8 C 25,0 C 22,3 C 81 % 1008,8 hPa 0,0 l/m 2 min 0 min 508 W/m 12,9 km/h (3 Bft) 95,83 %
20.06.2021 09:04 21,9 C 26,1 C 22,8 C 81 % 1008,7 hPa 0,0 l/m 2 min 0 min 531 W/m 16,1 km/h (3 Bft) 95,74 %
20.06.2021 09:06 22,1 C 25,6 C 22,8 C 79 % 1008,7 hPa 0,0 l/m 2 min 0 min 542 W/m 16,1 km/h (3 Bft) 95,74 %
20.06.2021 09:08 22,2 C 26,1 C 22,8 C 79 % 1008,7 hPa 0,0 l/m 2 min 0 min 540 W/m 12,9 km/h (3 Bft) 95,74 %
20.06.2021 09:10 22,3 C 26,1 C 23,4 C 79 % 1008,7 hPa 0,0 l/m 2 min 0 min 577 W/m 19,3 km/h (3 Bft) 93,75 %
20.06.2021 09:12 22,4 C 26,7 C 23,4 C 79 % 1008,7 hPa 0,0 l/m 2 min 0 min 582 W/m 22,5 km/h (4 Bft) 91,49 %
20.06.2021 09:14 22,4 C 26,7 C 23,4 C 78 % 1008,7 hPa 0,0 l/m 2 min 0 min 634 W/m 16,1 km/h (3 Bft) 95,74 %
20.06.2021 09:16 22,5 C 26,1 C 23,4 C 78 % 1008,7 hPa 0,0 l/m 2 min 0 min 397 W/m 25,7 km/h (4 Bft) 93,62 %
20.06.2021 09:18 22,5 C 25,0 C 22,8 C 78 % 1008,8 hPa 0,0 l/m 0 min 0 min 237 W/m 16,1 km/h (3 Bft) 95,74 %
20.06.2021 09:20 22,5 C 25,0 C 22,8 C 77 % 1008,9 hPa 0,0 l/m 0 min 0 min 253 W/m 16,1 km/h (3 Bft) 95,65 %
20.06.2021 09:22 22,4 C 23,9 C 22,3 C 77 % 1008,9 hPa 0,0 l/m 0 min 0 min 193 W/m 19,3 km/h (3 Bft) 93,62 %
20.06.2021 09:24 22,4 C 23,3 C 21,7 C 77 % 1008,9 hPa 0,0 l/m 0 min 0 min 160 W/m 16,1 km/h (3 Bft) 97,87 %
20.06.2021 09:26 22,3 C 22,8 C 21,7 C 77 % 1008,9 hPa 0,0 l/m 0 min 0 min 153 W/m 16,1 km/h (3 Bft) 97,87 %
20.06.2021 09:28 22,3 C 24,4 C 22,3 C 78 % 1008,9 hPa 0,0 l/m 0 min 0 min 282 W/m 12,9 km/h (3 Bft) 97,87 %
20.06.2021 09:30 22,4 C 26,1 C 22,8 C 79 % 1008,9 hPa 0,0 l/m 2 min 0 min 681 W/m 19,3 km/h (3 Bft) 93,62 %
20.06.2021 09:32 22,5 C 26,7 C 23,4 C 78 % 1008,8 hPa 0,0 l/m 2 min 0 min 636 W/m 19,3 km/h (3 Bft) 97,83 %
20.06.2021 09:34 22,6 C 26,1 C 23,9 C 78 % 1008,8 hPa 0,0 l/m 2 min 0 min 643 W/m 25,7 km/h (4 Bft) 97,87 %
20.06.2021 09:36 22,6 C 26,7 C 23,9 C 76 % 1008,9 hPa 0,0 l/m 2 min 0 min 624 W/m 22,5 km/h (4 Bft) 95,74 %
20.06.2021 09:38 22,8 C 27,2 C 24,5 C 76 % 1008,9 hPa 0,0 l/m 2 min 0 min 628 W/m 12,9 km/h (3 Bft) 97,87 %
20.06.2021 09:40 22,9 C 27,2 C 25,0 C 76 % 1009,0 hPa 0,0 l/m 2 min 0 min 625 W/m 25,7 km/h (4 Bft) 100,00 %
20.06.2021 09:42 23,0 C 28,3 C 25,6 C 76 % 1008,9 hPa 0,0 l/m 2 min 0 min 640 W/m 12,9 km/h (3 Bft) 97,87 %
20.06.2021 09:44 23,1 C 27,8 C 25,6 C 76 % 1008,9 hPa 0,0 l/m 2 min 0 min 673 W/m 22,5 km/h (4 Bft) 97,87 %
20.06.2021 09:46 23,1 C 27,2 C 25,0 C 74 % 1009,0 hPa 0,0 l/m 2 min 0 min 682 W/m 19,3 km/h (3 Bft) 97,83 %
20.06.2021 09:48 23,1 C 26,7 C 25,0 C 74 % 1009,0 hPa 0,0 l/m 2 min 0 min 659 W/m 16,1 km/h (3 Bft) 97,87 %
20.06.2021 09:50 23,0 C 26,7 C 25,6 C 74 % 1009,0 hPa 0,0 l/m 2 min 0 min 657 W/m 22,5 km/h (4 Bft) 97,87 %
20.06.2021 09:52 23,0 C 26,1 C 26,1 C 74 % 1008,9 hPa 0,0 l/m 2 min 0 min 704 W/m 29,0 km/h (5 Bft) 97,87 %
20.06.2021 09:54 23,1 C 26,7 C 26,1 C 75 % 1009,0 hPa 0,0 l/m 2 min 0 min 703 W/m 16,1 km/h (3 Bft) 100,00 %
20.06.2021 09:56 23,2 C 26,7 C 26,7 C 75 % 1009,0 hPa 0,0 l/m 2 min 0 min 692 W/m 19,3 km/h (3 Bft) 97,87 %
20.06.2021 09:58 23,2 C 26,7 C 26,1 C 74 % 1009,0 hPa 0,0 l/m 2 min 0 min 708 W/m 29,0 km/h (5 Bft) 100,00 %
20.06.2021 10:00 23,3 C 25,6 C 25,6 C 74 % 1009,0 hPa 0,0 l/m 2 min 0 min 712 W/m 25,7 km/h (4 Bft) 100,00 %
20.06.2021 10:02 23,3 C 25,6 C 26,1 C 73 % 1009,1 hPa 0,0 l/m 2 min 0 min 712 W/m 22,5 km/h (4 Bft) 97,87 %
20.06.2021 10:04 23,3 C 25,0 C 25,0 C 74 % 1009,2 hPa 0,0 l/m 2 min 0 min 556 W/m 22,5 km/h (4 Bft) 100,00 %
20.06.2021 10:06 23,3 C 24,4 C 23,9 C 74 % 1009,2 hPa 0,0 l/m 0 min 0 min 163 W/m 22,5 km/h (4 Bft) 100,00 %
20.06.2021 10:08 23,1 C 23,9 C 22,8 C 74 % 1009,2 hPa 0,0 l/m 0 min 0 min 194 W/m 29,0 km/h (5 Bft) 100,00 %
20.06.2021 10:10 23,0 C 23,9 C 23,4 C 74 % 1009,2 hPa 0,0 l/m 0 min 0 min 267 W/m 19,3 km/h (3 Bft) 100,00 %
20.06.2021 10:12 23,0 C 23,3 C 22,8 C 74 % 1009,3 hPa 0,0 l/m 0 min 0 min 204 W/m 19,3 km/h (3 Bft) 100,00 %
20.06.2021 10:14 23,0 C 23,3 C 22,8 C 74 % 1009,4 hPa 0,0 l/m 0 min 0 min 231 W/m 19,3 km/h (3 Bft) 100,00 %
20.06.2021 10:16 23,0 C 23,9 C 23,4 C 75 % 1009,2 hPa 0,0 l/m 0 min 0 min 250 W/m 16,1 km/h (3 Bft) 97,87 %
20.06.2021 10:18 23,0 C 24,4 C 24,5 C 75 % 1009,2 hPa 0,0 l/m 0 min 0 min 262 W/m 19,3 km/h (3 Bft) 100,00 %
20.06.2021 10:20 23,1 C 25,6 C 26,1 C 74 % 1009,2 hPa 0,0 l/m 2 min 0 min 838 W/m 29,0 km/h (5 Bft) 100,00 %
20.06.2021 10:22 23,3 C 26,1 C 26,7 C 75 % 1009,1 hPa 0,0 l/m 2 min 0 min 837 W/m 19,3 km/h (3 Bft) 97,87 %
20.06.2021 10:24 23,5 C 25,6 C 26,1 C 74 % 1009,2 hPa 0,0 l/m 2 min 0 min 825 W/m 19,3 km/h (3 Bft) 100,00 %
20.06.2021 10:26 23,5 C 25,6 C 26,7 C 72 % 1009,2 hPa 0,0 l/m 2 min 0 min 372 W/m 38,6 km/h (5 Bft) 100,00 %
20.06.2021 10:28 23,6 C 26,1 C 27,8 C 72 % 1009,2 hPa 0,0 l/m 2 min 0 min 908 W/m 22,5 km/h (4 Bft) 100,00 %
20.06.2021 10:30 23,7 C 25,6 C 28,4 C 71 % 1009,0 hPa 0,0 l/m 2 min 0 min 847 W/m 19,3 km/h (3 Bft) 100,00 %
20.06.2021 10:32 23,8 C 25,6 C 27,8 C 71 % 1009,0 hPa 0,0 l/m 2 min 0 min 842 W/m 19,3 km/h (3 Bft) 100,00 %
20.06.2021 10:34 23,8 C 25,0 C 27,3 C 71 % 1009,0 hPa 0,0 l/m 2 min 0 min 842 W/m 22,5 km/h (4 Bft) 100,00 %
20.06.2021 10:36 23,9 C 25,0 C 27,3 C 71 % 1009,0 hPa 0,0 l/m 2 min 0 min 884 W/m 12,9 km/h (3 Bft) 100,00 %
20.06.2021 10:38 23,9 C 25,0 C 28,4 C 72 % 1009,0 hPa 0,0 l/m 2 min 0 min 868 W/m 19,3 km/h (3 Bft) 100,00 %
20.06.2021 10:40 23,9 C 25,6 C 28,4 C 71 % 1009,0 hPa 0,0 l/m 2 min 0 min 806 W/m 12,9 km/h (3 Bft) 100,00 %
20.06.2021 10:42 23,9 C 25,0 C 27,3 C 70 % 1009,1 hPa 0,0 l/m 2 min 0 min 798 W/m 25,7 km/h (4 Bft) 100,00 %
20.06.2021 10:44 23,9 C 25,0 C 26,1 C 71 % 1009,2 hPa 0,0 l/m 2 min 0 min 798 W/m 16,1 km/h (3 Bft) 100,00 %
20.06.2021 10:46 23,8 C 24,4 C 25,6 C 70 % 1009,1 hPa 0,0 l/m 0 min 0 min 332 W/m 41,8 km/h (6 Bft) 100,00 %
20.06.2021 10:48 23,8 C 24,4 C 26,1 C 71 % 1009,1 hPa 0,0 l/m 2 min 0 min 585 W/m 16,1 km/h (3 Bft) 100,00 %
20.06.2021 10:50 23,8 C 25,0 C 26,1 C 70 % 1009,1 hPa 0,0 l/m 2 min 0 min 542 W/m 12,9 km/h (3 Bft) 100,00 %
20.06.2021 10:52 23,8 C 25,0 C 26,1 C 70 % 1009,0 hPa 0,0 l/m 2 min 0 min 515 W/m 29,0 km/h (5 Bft) 100,00 %
20.06.2021 10:54 23,8 C 25,0 C 27,3 C 70 % 1009,1 hPa 0,0 l/m 2 min 0 min 699 W/m 25,7 km/h (4 Bft) 100,00 %
20.06.2021 10:56 23,8 C 25,6 C 27,3 C 69 % 1009,2 hPa 0,0 l/m 2 min 0 min 659 W/m 32,2 km/h (5 Bft) 100,00 %
20.06.2021 10:58 23,9 C 25,0 C 26,7 C 69 % 1009,1 hPa 0,0 l/m 2 min 0 min 614 W/m 29,0 km/h (5 Bft) 100,00 %
20.06.2021 11:00 23,9 C 25,0 C 26,1 C 69 % 1009,0 hPa 0,0 l/m 2 min 0 min 603 W/m 25,7 km/h (4 Bft) 100,00 %
20.06.2021 11:02 23,9 C 24,4 C 25,0 C 69 % 1009,1 hPa 0,0 l/m 2 min 0 min 603 W/m 29,0 km/h (5 Bft) 97,87 %
20.06.2021 11:04 23,9 C 25,0 C 25,6 C 69 % 1009,1 hPa 0,0 l/m 2 min 0 min 603 W/m 25,7 km/h (4 Bft) 97,87 %
20.06.2021 11:06 23,9 C 25,0 C 25,6 C 69 % 1009,1 hPa 0,0 l/m 0 min 0 min 394 W/m 32,2 km/h (5 Bft) 97,83 %
20.06.2021 11:08 23,9 C 25,6 C 25,6 C 70 % 1009,1 hPa 0,0 l/m 0 min 0 min 385 W/m 32,2 km/h (5 Bft) 100,00 %
20.06.2021 11:10 24,0 C 26,1 C 25,6 C 69 % 1009,2 hPa 0,0 l/m 0 min 0 min 385 W/m 29,0 km/h (5 Bft) 100,00 %
20.06.2021 11:12 24,0 C 26,1 C 25,0 C 68 % 1009,2 hPa 0,0 l/m 2 min 0 min 938 W/m 41,8 km/h (6 Bft) 95,74 %
20.06.2021 11:14 24,1 C 26,1 C 25,0 C 68 % 1009,2 hPa 0,0 l/m 2 min 0 min 884 W/m 41,8 km/h (6 Bft) 95,74 %
20.06.2021 11:16 24,3 C 26,7 C 25,0 C 68 % 1009,1 hPa 0,0 l/m 2 min 0 min 877 W/m 25,7 km/h (4 Bft) 97,87 %
20.06.2021 11:18 24,4 C 26,7 C 25,0 C 67 % 1009,1 hPa 0,0 l/m 2 min 0 min 894 W/m 25,7 km/h (4 Bft) 97,83 %
20.06.2021 11:20 24,5 C 26,7 C 25,6 C 67 % 1009,2 hPa 0,0 l/m 2 min 0 min 989 W/m 29,0 km/h (5 Bft) 97,87 %
20.06.2021 11:22 24,6 C 26,7 C 26,1 C 66 % 1009,2 hPa 0,0 l/m 2 min 0 min 944 W/m 48,3 km/h (6 Bft) 95,74 %
20.06.2021 11:24 24,6 C 26,1 C 25,6 C 66 % 1009,2 hPa 0,0 l/m 2 min 0 min 935 W/m 38,6 km/h (5 Bft) 95,74 %
20.06.2021 11:26 24,6 C 26,1 C 26,1 C 65 % 1009,2 hPa 0,0 l/m 2 min 0 min 928 W/m 19,3 km/h (3 Bft) 93,62 %
20.06.2021 11:28 24,8 C 26,7 C 26,1 C 67 % 1009,3 hPa 0,0 l/m 2 min 0 min 886 W/m 25,7 km/h (4 Bft) 95,74 %
20.06.2021 11:30 24,7 C 25,6 C 25,0 C 65 % 1009,3 hPa 0,0 l/m 2 min 0 min 564 W/m 35,4 km/h (5 Bft) 93,48 %
20.06.2021 11:32 24,7 C 26,1 C 25,0 C 66 % 1009,3 hPa 0,0 l/m 0 min 0 min 318 W/m 19,3 km/h (3 Bft) 95,83 %
20.06.2021 11:34 24,8 C 26,1 C 25,0 C 67 % 1009,2 hPa 0,0 l/m 0 min 0 min 309 W/m 25,7 km/h (4 Bft) 95,74 %
20.06.2021 11:36 24,7 C 26,1 C 24,5 C 67 % 1009,2 hPa 0,0 l/m 0 min 0 min 246 W/m 16,1 km/h (3 Bft) 95,74 %
20.06.2021 11:38 24,8 C 26,7 C 25,0 C 66 % 1009,2 hPa 0,0 l/m 2 min 0 min 497 W/m 41,8 km/h (6 Bft) 96,00 %
20.06.2021 11:40 24,8 C 26,7 C 25,6 C 66 % 1009,4 hPa 0,0 l/m 2 min 0 min 974 W/m 29,0 km/h (5 Bft) 94,29 %
20.06.2021 11:42 24,8 C 26,7 C 26,1 C 65 % 1009,3 hPa 0,0 l/m 2 min 0 min 923 W/m 25,7 km/h (4 Bft) 97,87 %
20.06.2021 11:44 24,8 C 26,1 C 25,6 C 65 % 1009,4 hPa 0,0 l/m 2 min 0 min 720 W/m 22,5 km/h (4 Bft) 95,65 %
20.06.2021 11:46 24,8 C 25,6 C 24,5 C 65 % 1009,4 hPa 0,0 l/m 0 min 0 min 248 W/m 22,5 km/h (4 Bft) 95,74 %
20.06.2021 11:48 24,8 C 25,0 C 23,9 C 66 % 1009,4 hPa 0,0 l/m 0 min 0 min 297 W/m 19,3 km/h (3 Bft) 93,62 %
20.06.2021 11:50 24,7 C 25,6 C 24,5 C 66 % 1009,4 hPa 0,0 l/m 0 min 0 min 375 W/m 19,3 km/h (3 Bft) 93,62 %
20.06.2021 11:52 24,6 C 25,0 C 23,9 C 66 % 1009,5 hPa 0,0 l/m 0 min 0 min 286 W/m 19,3 km/h (3 Bft) 95,74 %
20.06.2021 11:54 24,5 C 25,0 C 23,9 C 66 % 1009,4 hPa 0,0 l/m 0 min 0 min 232 W/m 16,1 km/h (3 Bft) 95,65 %
20.06.2021 11:56 24,6 C 26,1 C 25,6 C 66 % 1009,5 hPa 0,0 l/m 2 min 0 min 847 W/m 16,1 km/h (3 Bft) 95,74 %
20.06.2021 11:58 24,7 C 27,2 C 26,7 C 66 % 1009,4 hPa 0,0 l/m 2 min 0 min 1064 W/m 16,1 km/h (3 Bft) 97,87 %
20.06.2021 12:00 24,8 C 26,7 C 26,1 C 65 % 1009,4 hPa 0,0 l/m 2 min 0 min 1063 W/m 25,7 km/h (4 Bft) 97,87 %
20.06.2021 12:02 24,9 C 27,2 C 26,7 C 67 % 1009,5 hPa 0,0 l/m 2 min 0 min 1063 W/m 6,4 km/h (2 Bft) 98,15 %
20.06.2021 12:04 25,0 C 26,7 C 25,6 C 67 % 1009,4 hPa 0,0 l/m 2 min 0 min 637 W/m 25,7 km/h (4 Bft) 93,48 %
20.06.2021 12:08 24,8 C 25,0 C 23,9 C 64 % 1009,5 hPa 0,0 l/m 0 min 0 min 246 W/m 35,4 km/h (5 Bft) 97,87 %
20.06.2021 12:10 24,8 C 25,6 C 25,0 C 65 % 1009,6 hPa 0,0 l/m 0 min 0 min 399 W/m 22,5 km/h (4 Bft) 97,87 %
20.06.2021 12:12 24,7 C 25,6 C 25,0 C 65 % 1009,5 hPa 0,0 l/m 0 min 0 min 376 W/m 22,5 km/h (4 Bft) 95,74 %
20.06.2021 12:14 24,7 C 25,6 C 25,0 C 66 % 1009,5 hPa 0,0 l/m 0 min 0 min 318 W/m 6,4 km/h (2 Bft) 95,74 %
20.06.2021 12:16 24,6 C 25,0 C 23,9 C 66 % 1009,5 hPa 0,0 l/m 0 min 0 min 232 W/m 16,1 km/h (3 Bft) 95,74 %
20.06.2021 12:18 24,6 C 25,0 C 24,5 C 66 % 1009,5 hPa 0,0 l/m 0 min 0 min 230 W/m 12,9 km/h (3 Bft) 95,65 %
20.06.2021 12:20 24,6 C 25,6 C 27,8 C 66 % 1009,5 hPa 0,0 l/m 2 min 0 min 536 W/m 19,3 km/h (3 Bft) 95,74 %
20.06.2021 12:22 24,7 C 26,1 C 28,4 C 65 % 1009,4 hPa 0,0 l/m 2 min 0 min 920 W/m 25,7 km/h (4 Bft) 95,74 %
20.06.2021 12:24 24,8 C 26,1 C 29,5 C 65 % 1009,3 hPa 0,0 l/m 2 min 0 min 927 W/m 25,7 km/h (4 Bft) 100,00 %
20.06.2021 12:26 24,8 C 26,1 C 29,5 C 65 % 1009,3 hPa 0,0 l/m 2 min 0 min 1009 W/m 16,1 km/h (3 Bft) 95,74 %
20.06.2021 12:28 24,9 C 26,1 C 28,4 C 65 % 1009,4 hPa 0,0 l/m 0 min 0 min 249 W/m 12,9 km/h (3 Bft) 97,83 %
20.06.2021 12:30 25,0 C 26,7 C 29,5 C 65 % 1009,4 hPa 0,0 l/m 2 min 0 min 782 W/m 19,3 km/h (3 Bft) 97,87 %
20.06.2021 12:32 25,0 C 26,7 C 30,6 C 65 % 1009,5 hPa 0,0 l/m 2 min 0 min 1072 W/m 16,1 km/h (3 Bft) 95,74 %
20.06.2021 12:34 25,1 C 27,2 C 32,3 C 65 % 1009,4 hPa 0,0 l/m 2 min 0 min 1072 W/m 19,3 km/h (3 Bft) 97,87 %
20.06.2021 12:36 25,1 C 26,7 C 30,0 C 64 % 1009,4 hPa 0,0 l/m 2 min 0 min 860 W/m 25,7 km/h (4 Bft) 97,87 %
20.06.2021 12:38 25,1 C 26,7 C 28,9 C 65 % 1009,4 hPa 0,0 l/m 0 min 0 min 228 W/m 9,7 km/h (2 Bft) 97,96 %
20.06.2021 12:40 25,1 C 26,7 C 30,0 C 64 % 1009,4 hPa 0,0 l/m 0 min 0 min 239 W/m 19,3 km/h (3 Bft) 97,96 %
20.06.2021 12:42 25,2 C 27,2 C 32,3 C 66 % 1009,3 hPa 0,0 l/m 0 min 0 min 437 W/m 12,9 km/h (3 Bft) 95,74 %
20.06.2021 12:44 25,4 C 27,8 C 33,9 C 65 % 1009,3 hPa 0,0 l/m 2 min 0 min 1049 W/m 12,9 km/h (3 Bft) 97,87 %
20.06.2021 12:46 25,6 C 28,3 C 35,6 C 64 % 1009,3 hPa 0,0 l/m 2 min 0 min 999 W/m 16,1 km/h (3 Bft) 97,87 %
20.06.2021 12:48 25,8 C 28,3 C 34,5 C 63 % 1009,3 hPa 0,0 l/m 2 min 0 min 976 W/m 19,3 km/h (3 Bft) 97,87 %
20.06.2021 12:50 25,9 C 27,2 C 31,7 C 62 % 1009,3 hPa 0,0 l/m 2 min 0 min 688 W/m 12,9 km/h (3 Bft) 97,83 %
20.06.2021 12:52 25,7 C 27,2 C 30,6 C 62 % 1009,3 hPa 0,0 l/m 0 min 0 min 236 W/m 22,5 km/h (4 Bft) 97,87 %
20.06.2021 12:54 25,6 C 26,7 C 31,7 C 62 % 1009,3 hPa 0,0 l/m 2 min 0 min 810 W/m 22,5 km/h (4 Bft) 95,74 %
20.06.2021 12:56 25,6 C 27,2 C 33,4 C 63 % 1009,2 hPa 0,0 l/m 2 min 0 min 1030 W/m 19,3 km/h (3 Bft) 97,87 %
20.06.2021 12:58 25,7 C 27,8 C 33,9 C 62 % 1009,1 hPa 0,0 l/m 2 min 0 min 1089 W/m 12,9 km/h (3 Bft) 97,87 %
20.06.2021 13:00 25,8 C 27,2 C 30,6 C 62 % 1009,1 hPa 0,0 l/m 2 min 0 min 842 W/m 22,5 km/h (4 Bft) 97,87 %
20.06.2021 13:02 25,7 C 26,7 C 28,9 C 62 % 1009,1 hPa 0,0 l/m 0 min 0 min 290 W/m 16,1 km/h (3 Bft) 97,83 %
20.06.2021 13:04 25,7 C 26,7 C 27,8 C 63 % 1009,1 hPa 0,0 l/m 0 min 0 min 307 W/m 6,4 km/h (2 Bft) 97,87 %
20.06.2021 13:06 25,8 C 27,2 C 28,4 C 64 % 1009,1 hPa 0,0 l/m 0 min 0 min 371 W/m 12,9 km/h (3 Bft) 97,87 %
20.06.2021 13:08 25,8 C 27,2 C 28,4 C 63 % 1009,1 hPa 0,0 l/m 0 min 0 min 371 W/m 16,1 km/h (3 Bft) 100,00 %
20.06.2021 13:10 25,9 C 27,8 C 30,6 C 63 % 1009,0 hPa 0,0 l/m 2 min 0 min 652 W/m 12,9 km/h (3 Bft) 100,00 %
20.06.2021 13:12 26,0 C 27,8 C 32,3 C 62 % 1009,0 hPa 0,0 l/m 2 min 0 min 807 W/m 19,3 km/h (3 Bft) 97,87 %
20.06.2021 13:14 26,1 C 28,3 C 32,3 C 63 % 1009,1 hPa 0,0 l/m 2 min 0 min 809 W/m 22,5 km/h (4 Bft) 100,00 %
20.06.2021 13:16 26,2 C 27,8 C 30,6 C 61 % 1009,1 hPa 0,0 l/m 2 min 0 min 870 W/m 25,7 km/h (4 Bft) 95,74 %
20.06.2021 13:18 26,0 C 27,2 C 28,9 C 60 % 1009,1 hPa 0,0 l/m 2 min 0 min 491 W/m 19,3 km/h (3 Bft) 100,00 %
20.06.2021 13:20 26,0 C 27,8 C 30,6 C 62 % 1009,0 hPa 0,0 l/m 0 min 0 min 363 W/m 6,4 km/h (2 Bft) 100,00 %
20.06.2021 13:22 26,1 C 27,8 C 30,6 C 63 % 1009,0 hPa 0,0 l/m 0 min 0 min 445 W/m 16,1 km/h (3 Bft) 87,23 %
20.06.2021 13:24 26,1 C 28,3 C 31,7 C 62 % 1009,0 hPa 0,0 l/m 2 min 0 min 932 W/m 12,9 km/h (3 Bft) 82,98 %
20.06.2021 13:26 26,3 C 27,8 C 31,1 C 60 % 1008,9 hPa 0,0 l/m 2 min 0 min 1113 W/m 16,1 km/h (3 Bft) 93,48 %
20.06.2021 13:28 26,1 C 27,8 C 31,7 C 59 % 1008,9 hPa 0,0 l/m 2 min 0 min 1113 W/m 29,0 km/h (5 Bft) 95,74 %
20.06.2021 13:30 26,0 C 27,2 C 31,7 C 60 % 1008,9 hPa 0,0 l/m 2 min 0 min 845 W/m 25,7 km/h (4 Bft) 100,00 %
20.06.2021 13:32 26,1 C 27,8 C 33,9 C 61 % 1008,9 hPa 0,0 l/m 2 min 0 min 922 W/m 12,9 km/h (3 Bft) 93,62 %
20.06.2021 13:34 26,1 C 27,8 C 34,5 C 61 % 1008,8 hPa 0,0 l/m 2 min 0 min 1067 W/m 19,3 km/h (3 Bft) 100,00 %
20.06.2021 13:36 26,3 C 28,3 C 35,6 C 62 % 1008,8 hPa 0,0 l/m 2 min 0 min 1016 W/m 16,1 km/h (3 Bft) 100,00 %
20.06.2021 13:38 26,4 C 28,3 C 36,1 C 60 % 1008,8 hPa 0,0 l/m 2 min 0 min 994 W/m 16,1 km/h (3 Bft) 89,13 %
20.06.2021 13:40 26,5 C 28,9 C 36,7 C 61 % 1008,8 hPa 0,0 l/m 2 min 0 min 1005 W/m 16,1 km/h (3 Bft) 91,49 %
20.06.2021 13:42 26,6 C 29,4 C 36,1 C 60 % 1008,7 hPa 0,0 l/m 2 min 0 min 1082 W/m 16,1 km/h (3 Bft) 93,62 %
20.06.2021 13:44 26,6 C 28,9 C 34,5 C 59 % 1008,6 hPa 0,0 l/m 0 min 0 min 420 W/m 12,9 km/h (3 Bft) 97,87 %
20.06.2021 13:46 26,5 C 28,3 C 33,9 C 59 % 1008,7 hPa 0,0 l/m 2 min 0 min 826 W/m 19,3 km/h (3 Bft) 97,87 %
20.06.2021 13:48 26,4 C 28,3 C 32,8 C 57 % 1008,6 hPa 0,0 l/m 2 min 0 min 1039 W/m 16,1 km/h (3 Bft) 95,74 %
20.06.2021 13:50 26,4 C 28,3 C 33,4 C 59 % 1008,6 hPa 0,0 l/m 2 min 0 min 1041 W/m 12,9 km/h (3 Bft) 95,65 %
20.06.2021 13:52 26,5 C 28,9 C 33,4 C 60 % 1008,7 hPa 0,0 l/m 2 min 0 min 1041 W/m 9,7 km/h (2 Bft) 97,87 %
20.06.2021 13:54 26,5 C 28,9 C 33,9 C 59 % 1008,7 hPa 0,0 l/m 2 min 0 min 1037 W/m 12,9 km/h (3 Bft) 97,87 %
20.06.2021 13:56 26,5 C 28,9 C 32,3 C 58 % 1008,5 hPa 0,0 l/m 2 min 0 min 900 W/m 12,9 km/h (3 Bft) 97,87 %
20.06.2021 13:58 26,6 C 29,4 C 31,7 C 59 % 1008,5 hPa 0,0 l/m 2 min 0 min 1102 W/m 12,9 km/h (3 Bft) 97,87 %
20.06.2021 14:00 26,8 C 29,4 C 31,1 C 59 % 1008,5 hPa 0,0 l/m 2 min 0 min 1006 W/m 16,1 km/h (3 Bft) 97,87 %
20.06.2021 14:02 26,8 C 28,9 C 29,5 C 59 % 1008,6 hPa 0,0 l/m 2 min 0 min 548 W/m 12,9 km/h (3 Bft) 97,87 %
20.06.2021 14:04 26,8 C 28,9 C 28,9 C 60 % 1008,6 hPa 0,0 l/m 2 min 0 min 468 W/m 6,4 km/h (2 Bft) 97,87 %
20.06.2021 14:06 26,8 C 28,9 C 28,4 C 59 % 1008,6 hPa 0,0 l/m 2 min 0 min 468 W/m 16,1 km/h (3 Bft) 95,74 %
20.06.2021 14:08 26,7 C 28,3 C 27,8 C 59 % 1008,6 hPa 0,0 l/m 2 min 0 min 468 W/m 16,1 km/h (3 Bft) 98,00 %
20.06.2021 14:10 26,6 C 28,9 C 27,3 C 58 % 1008,6 hPa 0,0 l/m 2 min 0 min 640 W/m 22,5 km/h (4 Bft) 97,14 %
20.06.2021 14:12 26,8 C 29,4 C 27,3 C 60 % 1008,5 hPa 0,0 l/m 2 min 0 min 848 W/m 12,9 km/h (3 Bft) 97,87 %
20.06.2021 14:14 26,9 C 30,0 C 27,3 C 60 % 1008,5 hPa 0,0 l/m 2 min 0 min 605 W/m 6,4 km/h (2 Bft) 97,83 %
20.06.2021 14:16 26,9 C 29,4 C 26,7 C 59 % 1008,5 hPa 0,0 l/m 2 min 0 min 605 W/m 16,1 km/h (3 Bft) 97,87 %
20.06.2021 14:18 26,8 C 28,9 C 26,1 C 59 % 1008,7 hPa 0,0 l/m 2 min 0 min 767 W/m 19,3 km/h (3 Bft) 91,49 %
20.06.2021 14:20 26,8 C 29,4 C 26,1 C 59 % 1008,6 hPa 0,0 l/m 2 min 0 min 942 W/m 12,9 km/h (3 Bft) 95,74 %
20.06.2021 14:22 26,9 C 28,9 C 26,1 C 58 % 1008,8 hPa 0,0 l/m 2 min 0 min 912 W/m 12,9 km/h (3 Bft) 97,87 %
20.06.2021 14:24 26,8 C 28,3 C 26,1 C 57 % 1008,7 hPa 0,0 l/m 2 min 0 min 838 W/m 19,3 km/h (3 Bft) 95,74 %
20.06.2021 14:26 26,7 C 28,3 C 26,1 C 59 % 1008,8 hPa 0,0 l/m 0 min 0 min 321 W/m 16,1 km/h (3 Bft) 95,65 %
20.06.2021 14:28 26,6 C 28,3 C 25,6 C 59 % 1008,8 hPa 0,0 l/m 0 min 0 min 430 W/m 32,2 km/h (5 Bft) 97,87 %
20.06.2021 14:30 26,6 C 29,4 C 25,6 C 58 % 1008,8 hPa 0,0 l/m 2 min 0 min 761 W/m 12,9 km/h (3 Bft) 97,87 %
20.06.2021 14:32 26,8 C 29,4 C 26,1 C 58 % 1008,8 hPa 0,0 l/m 2 min 0 min 1026 W/m 19,3 km/h (3 Bft) 100,00 %
20.06.2021 14:34 26,9 C 30,0 C 26,1 C 57 % 1008,8 hPa 0,0 l/m 2 min 0 min 994 W/m 12,9 km/h (3 Bft) 100,00 %
20.06.2021 14:36 26,9 C 30,0 C 26,1 C 58 % 1008,8 hPa 0,0 l/m 2 min 0 min 1001 W/m 12,9 km/h (3 Bft) 95,74 %
20.06.2021 14:38 27,1 C 30,6 C 26,1 C 58 % 1008,7 hPa 0,0 l/m 2 min 0 min 942 W/m 12,9 km/h (3 Bft) 97,83 %
20.06.2021 14:40 27,2 C 30,6 C 26,1 C 57 % 1008,8 hPa 0,0 l/m 2 min 0 min 992 W/m 12,9 km/h (3 Bft) 96,43 %
20.06.2021 14:42 27,3 C 30,6 C 26,1 C 57 % 1008,8 hPa 0,0 l/m 2 min 0 min 1008 W/m 16,1 km/h (3 Bft) 97,87 %
20.06.2021 14:44 27,4 C 30,0 C 26,1 C 57 % 1008,8 hPa 0,0 l/m 2 min 0 min 855 W/m 12,9 km/h (3 Bft) 95,74 %
20.06.2021 14:46 27,4 C 29,4 C 25,6 C 56 % 1008,7 hPa 0,0 l/m 0 min 0 min 389 W/m 22,5 km/h (4 Bft) 97,83 %
20.06.2021 14:48 27,3 C 30,0 C 25,6 C 58 % 1008,8 hPa 0,0 l/m 2 min 0 min 737 W/m 16,1 km/h (3 Bft) 97,87 %
20.06.2021 14:50 27,2 C 30,0 C 25,6 C 57 % 1008,8 hPa 0,0 l/m 2 min 0 min 776 W/m 16,1 km/h (3 Bft) 97,87 %
20.06.2021 14:52 27,3 C 30,0 C 26,1 C 57 % 1008,7 hPa 0,0 l/m 2 min 0 min 784 W/m 9,7 km/h (2 Bft) 97,87 %
20.06.2021 14:54 27,3 C 30,0 C 26,1 C 57 % 1008,8 hPa 0,0 l/m 2 min 0 min 742 W/m 16,1 km/h (3 Bft) 97,87 %
20.06.2021 14:56 27,3 C 30,0 C 26,1 C 56 % 1008,8 hPa 0,0 l/m 2 min 0 min 715 W/m 12,9 km/h (3 Bft) 95,74 %
20.06.2021 14:58 27,3 C 29,4 C 26,1 C 57 % 1008,8 hPa 0,0 l/m 2 min 0 min 684 W/m 12,9 km/h (3 Bft) 95,65 %
20.06.2021 15:00 27,1 C 28,9 C 26,1 C 57 % 1008,8 hPa 0,0 l/m 2 min 0 min 690 W/m 25,7 km/h (4 Bft) 97,87 %
20.06.2021 15:02 27,0 C 29,4 C 26,1 C 58 % 1008,8 hPa 0,0 l/m 2 min 0 min 758 W/m 9,7 km/h (2 Bft) 95,83 %
20.06.2021 15:04 27,1 C 29,4 C 26,1 C 59 % 1008,7 hPa 0,0 l/m 2 min 0 min 707 W/m 12,9 km/h (3 Bft) 97,87 %
20.06.2021 15:06 27,2 C 29,4 C 26,1 C 59 % 1008,8 hPa 0,0 l/m 2 min 0 min 629 W/m 12,9 km/h (3 Bft) 87,23 %
20.06.2021 15:08 27,2 C 29,4 C 26,1 C 59 % 1008,7 hPa 0,0 l/m 2 min 0 min 644 W/m 19,3 km/h (3 Bft) 97,92 %
20.06.2021 15:10 27,1 C 29,4 C 25,6 C 58 % 1008,8 hPa 0,0 l/m 2 min 0 min 642 W/m 12,9 km/h (3 Bft) 97,87 %
20.06.2021 15:12 27,0 C 28,3 C 25,6 C 59 % 1008,6 hPa 0,0 l/m 2 min 0 min 615 W/m 12,9 km/h (3 Bft) 97,87 %
20.06.2021 15:14 26,9 C 27,8 C 25,0 C 59 % 1008,6 hPa 0,0 l/m 0 min 0 min 376 W/m 9,7 km/h (2 Bft) 95,74 %
20.06.2021 15:16 26,8 C 27,2 C 25,0 C 59 % 1008,6 hPa 0,0 l/m 0 min 0 min 313 W/m 12,9 km/h (3 Bft) 89,36 %
20.06.2021 15:18 26,6 C 27,2 C 24,5 C 60 % 1008,5 hPa 0,0 l/m 0 min 0 min 212 W/m 16,1 km/h (3 Bft) 95,74 %
20.06.2021 15:20 26,5 C 27,8 C 25,0 C 60 % 1008,5 hPa 0,0 l/m 0 min 0 min 391 W/m 25,7 km/h (4 Bft) 95,74 %
20.06.2021 15:22 26,6 C 28,3 C 25,0 C 60 % 1008,5 hPa 0,0 l/m 2 min 0 min 900 W/m 12,9 km/h (3 Bft) 97,83 %
20.06.2021 15:24 26,6 C 29,4 C 25,0 C 60 % 1008,4 hPa 0,0 l/m 2 min 0 min 912 W/m 12,9 km/h (3 Bft) 95,74 %
20.06.2021 15:26 26,8 C 30,0 C 25,0 C 60 % 1008,4 hPa 0,0 l/m 2 min 0 min 911 W/m 12,9 km/h (3 Bft) 95,74 %
20.06.2021 15:28 26,9 C 30,6 C 25,0 C 60 % 1008,4 hPa 0,0 l/m 2 min 0 min 909 W/m 19,3 km/h (3 Bft) 97,87 %
20.06.2021 15:30 26,9 C 30,0 C 25,6 C 59 % 1008,4 hPa 0,0 l/m 2 min 0 min 869 W/m 12,9 km/h (3 Bft) 91,49 %
20.06.2021 15:32 27,0 C 30,0 C 25,0 C 59 % 1008,3 hPa 0,0 l/m 2 min 0 min 904 W/m 16,1 km/h (3 Bft) 95,74 %
20.06.2021 15:34 27,1 C 30,0 C 25,0 C 58 % 1008,3 hPa 0,0 l/m 2 min 0 min 897 W/m 6,4 km/h (2 Bft) 91,30 %
20.06.2021 15:36 27,2 C 30,0 C 25,0 C 58 % 1008,3 hPa 0,0 l/m 2 min 0 min 929 W/m 22,5 km/h (4 Bft) 97,87 %
20.06.2021 15:38 27,3 C 30,6 C 25,0 C 59 % 1008,3 hPa 0,0 l/m 2 min 0 min 892 W/m 9,7 km/h (2 Bft) 88,57 %
20.06.2021 15:40 27,4 C 30,6 C 25,6 C 57 % 1008,2 hPa 0,0 l/m 2 min 0 min 894 W/m 12,9 km/h (3 Bft) 95,74 %
20.06.2021 15:42 27,5 C 30,6 C 25,6 C 58 % 1008,2 hPa 0,0 l/m 2 min 0 min 910 W/m 12,9 km/h (3 Bft) 95,74 %
20.06.2021 15:44 27,6 C 31,1 C 25,6 C 59 % 1008,2 hPa 0,0 l/m 2 min 0 min 909 W/m 16,1 km/h (3 Bft) 95,74 %
20.06.2021 15:46 27,6 C 30,6 C 25,6 C 58 % 1008,2 hPa 0,0 l/m 2 min 0 min 916 W/m 16,1 km/h (3 Bft) 95,74 %
20.06.2021 15:48 27,8 C 31,1 C 26,1 C 58 % 1008,2 hPa 0,0 l/m 2 min 0 min 889 W/m 12,9 km/h (3 Bft) 97,83 %
20.06.2021 15:50 27,9 C 31,1 C 26,1 C 58 % 1008,1 hPa 0,0 l/m 2 min 0 min 864 W/m 9,7 km/h (2 Bft) 97,87 %
20.06.2021 15:52 27,9 C 31,1 C 26,1 C 57 % 1008,1 hPa 0,0 l/m 2 min 0 min 867 W/m 16,1 km/h (3 Bft) 97,87 %
20.06.2021 15:54 27,9 C 31,1 C 26,1 C 56 % 1008,1 hPa 0,0 l/m 2 min 0 min 922 W/m 6,4 km/h (2 Bft) 97,87 %
20.06.2021 15:56 27,9 C 30,6 C 26,1 C 56 % 1008,1 hPa 0,0 l/m 2 min 0 min 921 W/m 16,1 km/h (3 Bft) 95,74 %
20.06.2021 15:58 27,9 C 31,1 C 26,1 C 56 % 1008,1 hPa 0,0 l/m 2 min 0 min 810 W/m 9,7 km/h (2 Bft) 95,74 %
20.06.2021 16:00 27,9 C 31,1 C 26,1 C 56 % 1008,0 hPa 0,0 l/m 2 min 0 min 849 W/m 6,4 km/h (2 Bft) 97,83 %
20.06.2021 16:02 28,0 C 31,7 C 26,1 C 56 % 1008,0 hPa 0,0 l/m 2 min 0 min 881 W/m 6,4 km/h (2 Bft) 97,87 %
20.06.2021 16:04 28,0 C 31,7 C 26,7 C 56 % 1008,0 hPa 0,0 l/m 2 min 0 min 860 W/m 6,4 km/h (2 Bft) 89,36 %
20.06.2021 16:06 28,0 C 31,1 C 26,7 C 58 % 1008,1 hPa 0,0 l/m 2 min 0 min 743 W/m 16,1 km/h (3 Bft) 85,11 %
20.06.2021 16:08 27,9 C 29,4 C 26,1 C 57 % 1008,2 hPa 0,0 l/m 0 min 0 min 302 W/m 12,9 km/h (3 Bft) 95,74 %
20.06.2021 16:10 27,6 C 28,9 C 26,1 C 58 % 1008,2 hPa 0,0 l/m 0 min 0 min 269 W/m 6,4 km/h (2 Bft) 92,59 %
20.06.2021 16:12 27,6 C 28,3 C 25,6 C 59 % 1008,2 hPa 0,0 l/m 0 min 0 min 277 W/m 6,4 km/h (2 Bft) 80,85 %
20.06.2021 16:14 27,5 C 28,3 C 25,6 C 58 % 1008,3 hPa 0,0 l/m 0 min 0 min 298 W/m 12,9 km/h (3 Bft) 93,62 %
20.06.2021 16:16 27,3 C 27,8 C 25,6 C 58 % 1008,2 hPa 0,0 l/m 0 min 0 min 344 W/m 19,3 km/h (3 Bft) 91,49 %
20.06.2021 16:18 27,1 C 27,8 C 25,0 C 58 % 1008,2 hPa 0,0 l/m 2 min 0 min 421 W/m 12,9 km/h (3 Bft) 95,74 %
20.06.2021 16:20 26,9 C 27,8 C 25,0 C 61 % 1008,3 hPa 0,0 l/m 2 min 0 min 402 W/m 6,4 km/h (2 Bft) 97,83 %
20.06.2021 16:22 26,9 C 27,8 C 25,0 C 61 % 1008,2 hPa 0,0 l/m 2 min 0 min 421 W/m 12,9 km/h (3 Bft) 93,62 %
20.06.2021 16:24 26,9 C 28,3 C 25,0 C 61 % 1008,2 hPa 0,0 l/m 2 min 0 min 476 W/m 9,7 km/h (2 Bft) 93,62 %
20.06.2021 16:26 26,9 C 27,8 C 25,0 C 60 % 1008,2 hPa 0,0 l/m 2 min 0 min 392 W/m 9,7 km/h (2 Bft) 93,62 %
20.06.2021 16:28 26,9 C 28,3 C 25,0 C 60 % 1008,1 hPa 0,0 l/m 2 min 0 min 427 W/m 12,9 km/h (3 Bft) 95,74 %
20.06.2021 16:30 26,9 C 28,3 C 25,0 C 60 % 1008,0 hPa 0,0 l/m 2 min 0 min 428 W/m 12,9 km/h (3 Bft) 95,74 %
20.06.2021 16:32 26,9 C 28,3 C 25,0 C 59 % 1008,0 hPa 0,0 l/m 0 min 0 min 371 W/m 12,9 km/h (3 Bft) 95,74 %
20.06.2021 16:34 26,9 C 28,9 C 25,0 C 60 % 1007,9 hPa 0,0 l/m 2 min 0 min 588 W/m 9,7 km/h (2 Bft) 97,87 %
20.06.2021 16:36 26,9 C 29,4 C 25,0 C 60 % 1007,9 hPa 0,0 l/m 2 min 0 min 595 W/m 12,9 km/h (3 Bft) 91,49 %
20.06.2021 16:38 27,0 C 29,4 C 25,6 C 61 % 1007,9 hPa 0,0 l/m 2 min 0 min 481 W/m 6,4 km/h (2 Bft) 96,00 %
20.06.2021 16:40 27,0 C 29,4 C 25,6 C 60 % 1008,0 hPa 0,0 l/m 2 min 0 min 438 W/m 12,9 km/h (3 Bft) 91,43 %
20.06.2021 16:42 27,0 C 28,9 C 25,0 C 60 % 1007,8 hPa 0,0 l/m 2 min 0 min 386 W/m 9,7 km/h (2 Bft) 91,49 %
20.06.2021 16:44 27,0 C 28,9 C 25,0 C 60 % 1007,8 hPa 0,0 l/m 2 min 0 min 366 W/m 12,9 km/h (3 Bft) 91,49 %
20.06.2021 16:46 26,9 C 28,9 C 25,0 C 59 % 1007,8 hPa 0,0 l/m 2 min 0 min 601 W/m 12,9 km/h (3 Bft) 93,48 %
20.06.2021 16:48 26,9 C 29,4 C 25,0 C 60 % 1007,7 hPa 0,0 l/m 2 min 0 min 606 W/m 12,9 km/h (3 Bft) 82,98 %
20.06.2021 16:50 26,9 C 30,0 C 25,6 C 61 % 1007,6 hPa 0,0 l/m 2 min 0 min 617 W/m 6,4 km/h (2 Bft) 80,85 %
20.06.2021 16:52 26,9 C 30,6 C 25,6 C 61 % 1007,6 hPa 0,0 l/m 2 min 0 min 594 W/m 12,9 km/h (3 Bft) 97,87 %
20.06.2021 16:54 27,0 C 30,0 C 25,6 C 60 % 1007,7 hPa 0,0 l/m 2 min 0 min 595 W/m 9,7 km/h (2 Bft) 97,87 %
20.06.2021 16:56 27,0 C 29,4 C 25,6 C 60 % 1007,6 hPa 0,0 l/m 2 min 0 min 503 W/m 9,7 km/h (2 Bft) 89,36 %
20.06.2021 16:58 26,9 C 28,3 C 25,6 C 59 % 1007,6 hPa 0,0 l/m 0 min 0 min 313 W/m 9,7 km/h (2 Bft) 93,48 %
20.06.2021 17:00 26,8 C 28,3 C 25,0 C 60 % 1007,6 hPa 0,0 l/m 0 min 0 min 272 W/m 6,4 km/h (2 Bft) 85,11 %
20.06.2021 17:02 26,8 C 27,8 C 25,0 C 61 % 1007,6 hPa 0,0 l/m 0 min 0 min 248 W/m 9,7 km/h (2 Bft) 100,00 %
20.06.2021 17:04 26,7 C 27,2 C 25,0 C 61 % 1007,5 hPa 0,0 l/m 0 min 0 min 268 W/m 12,9 km/h (3 Bft) 100,00 %
20.06.2021 17:06 26,7 C 27,2 C 25,0 C 62 % 1007,6 hPa 0,0 l/m 0 min 0 min 292 W/m 12,9 km/h (3 Bft) 97,87 %
20.06.2021 17:08 26,7 C 27,2 C 25,0 C 62 % 1007,5 hPa 0,0 l/m 0 min 0 min 311 W/m 6,4 km/h (2 Bft) 97,96 %
20.06.2021 17:10 26,6 C 27,8 C 24,5 C 61 % 1007,6 hPa 0,0 l/m 0 min 0 min 334 W/m 9,7 km/h (2 Bft) 100,00 %
20.06.2021 17:12 26,6 C 27,8 C 24,5 C 61 % 1007,6 hPa 0,0 l/m 2 min 0 min 359 W/m 6,4 km/h (2 Bft) 100,00 %
20.06.2021 17:14 26,6 C 27,8 C 24,5 C 61 % 1007,5 hPa 0,0 l/m 2 min 0 min 338 W/m 16,1 km/h (3 Bft) 100,00 %
20.06.2021 17:16 26,6 C 27,8 C 24,5 C 61 % 1007,5 hPa 0,0 l/m 0 min 0 min 316 W/m 9,7 km/h (2 Bft) 100,00 %
20.06.2021 17:18 26,6 C 27,2 C 24,5 C 61 % 1007,5 hPa 0,0 l/m 0 min 0 min 279 W/m 9,7 km/h (2 Bft) 100,00 %
20.06.2021 17:20 26,5 C 26,7 C 24,5 C 61 % 1007,5 hPa 0,0 l/m 0 min 0 min 248 W/m 9,7 km/h (2 Bft) 100,00 %
20.06.2021 17:22 26,5 C 26,7 C 23,9 C 61 % 1007,6 hPa 0,0 l/m 0 min 0 min 242 W/m 6,4 km/h (2 Bft) 97,87 %
20.06.2021 17:24 26,4 C 26,7 C 23,9 C 62 % 1007,8 hPa 0,0 l/m 0 min 0 min 243 W/m 6,4 km/h (2 Bft) 100,00 %
20.06.2021 17:26 26,3 C 26,7 C 24,5 C 62 % 1007,8 hPa 0,0 l/m 0 min 0 min 245 W/m 3,2 km/h (1 Bft) 100,00 %
20.06.2021 17:28 26,3 C 26,7 C 23,9 C 63 % 1007,8 hPa 0,0 l/m 0 min 0 min 249 W/m 9,7 km/h (2 Bft) 100,00 %
20.06.2021 17:30 26,3 C 26,7 C 23,9 C 62 % 1007,9 hPa 0,0 l/m 0 min 0 min 261 W/m 6,4 km/h (2 Bft) 100,00 %
20.06.2021 17:32 26,3 C 27,2 C 23,9 C 62 % 1007,9 hPa 0,0 l/m 0 min 0 min 264 W/m 3,2 km/h (1 Bft) 97,87 %
20.06.2021 17:34 26,3 C 27,2 C 23,9 C 62 % 1008,0 hPa 0,0 l/m 0 min 0 min 255 W/m 6,4 km/h (2 Bft) 95,74 %
20.06.2021 17:36 26,3 C 27,2 C 23,9 C 62 % 1008,1 hPa 0,0 l/m 0 min 0 min 274 W/m 6,4 km/h (2 Bft) 80,85 %
20.06.2021 17:38 26,3 C 27,8 C 23,9 C 61 % 1008,0 hPa 0,0 l/m 2 min 0 min 358 W/m 6,4 km/h (2 Bft) 57,14 %
20.06.2021 17:40 26,3 C 27,8 C 24,5 C 61 % 1008,1 hPa 0,0 l/m 2 min 0 min 378 W/m 6,4 km/h (2 Bft) 74,47 %
20.06.2021 17:42 26,3 C 27,8 C 24,5 C 62 % 1008,2 hPa 0,0 l/m 2 min 0 min 376 W/m 6,4 km/h (2 Bft) 97,87 %
20.06.2021 17:44 26,3 C 28,3 C 24,5 C 62 % 1008,1 hPa 0,0 l/m 2 min 0 min 418 W/m 3,2 km/h (1 Bft) 97,83 %
20.06.2021 17:46 26,4 C 28,9 C 24,5 C 61 % 1008,2 hPa 0,0 l/m 2 min 0 min 427 W/m 12,9 km/h (3 Bft) 93,62 %
20.06.2021 17:48 26,4 C 29,4 C 24,5 C 62 % 1008,1 hPa 0,0 l/m 2 min 0 min 453 W/m 12,9 km/h (3 Bft) 97,87 %
20.06.2021 17:50 26,4 C 29,4 C 24,5 C 61 % 1008,2 hPa 0,0 l/m 2 min 0 min 472 W/m 16,1 km/h (3 Bft) 97,87 %
20.06.2021 17:52 26,5 C 29,4 C 24,5 C 61 % 1008,2 hPa 0,0 l/m 2 min 0 min 420 W/m 3,2 km/h (1 Bft) 97,87 %
20.06.2021 17:54 26,5 C 30,0 C 24,5 C 62 % 1008,1 hPa 0,0 l/m 2 min 0 min 385 W/m 6,4 km/h (2 Bft) 97,87 %
20.06.2021 17:56 26,5 C 29,4 C 24,5 C 62 % 1008,1 hPa 0,0 l/m 2 min 0 min 384 W/m 12,9 km/h (3 Bft) 97,83 %
20.06.2021 17:58 26,6 C 29,4 C 24,5 C 61 % 1008,1 hPa 0,0 l/m 2 min 0 min 401 W/m 16,1 km/h (3 Bft) 97,87 %
20.06.2021 18:00 26,7 C 30,0 C 24,5 C 63 % 1008,0 hPa 0,0 l/m 2 min 0 min 402 W/m 12,9 km/h (3 Bft) 95,74 %
20.06.2021 18:02 26,8 C 30,6 C 25,0 C 61 % 1007,9 hPa 0,0 l/m 2 min 0 min 440 W/m 9,7 km/h (2 Bft) 97,87 %
20.06.2021 18:04 26,9 C 30,6 C 25,0 C 61 % 1007,9 hPa 0,0 l/m 2 min 0 min 448 W/m 6,4 km/h (2 Bft) 97,87 %
20.06.2021 18:08 26,9 C 30,6 C 25,0 C 61 % 1007,9 hPa 0,0 l/m 4 min 0 min 461 W/m 9,7 km/h (2 Bft) 96,77 %
20.06.2021 18:10 27,0 C 31,1 C 25,0 C 60 % 1007,9 hPa 0,0 l/m 2 min 0 min 509 W/m 9,7 km/h (2 Bft) 97,87 %
20.06.2021 18:12 27,0 C 31,7 C 25,0 C 60 % 1007,9 hPa 0,0 l/m 2 min 0 min 530 W/m 9,7 km/h (2 Bft) 97,87 %
20.06.2021 18:14 27,0 C 32,2 C 25,0 C 60 % 1007,7 hPa 0,0 l/m 2 min 0 min 593 W/m 9,7 km/h (2 Bft) 95,74 %
20.06.2021 18:16 27,1 C 32,2 C 25,0 C 59 % 1007,6 hPa 0,0 l/m 2 min 0 min 518 W/m 9,7 km/h (2 Bft) 97,87 %
20.06.2021 18:18 27,1 C 31,1 C 25,0 C 60 % 1007,7 hPa 0,0 l/m 2 min 0 min 407 W/m 9,7 km/h (2 Bft) 97,83 %
20.06.2021 18:20 27,1 C 31,1 C 25,0 C 59 % 1007,8 hPa 0,0 l/m 2 min 0 min 412 W/m 12,9 km/h (3 Bft) 97,87 %
20.06.2021 18:22 27,2 C 30,6 C 25,0 C 60 % 1007,8 hPa 0,0 l/m 2 min 0 min 325 W/m 9,7 km/h (2 Bft) 95,74 %
20.06.2021 18:24 27,3 C 30,0 C 25,0 C 60 % 1007,9 hPa 0,0 l/m 2 min 0 min 311 W/m 6,4 km/h (2 Bft) 97,87 %
20.06.2021 18:26 27,3 C 29,4 C 24,5 C 59 % 1007,9 hPa 0,0 l/m 2 min 0 min 266 W/m 9,7 km/h (2 Bft) 95,74 %
20.06.2021 18:28 27,2 C 29,4 C 24,5 C 58 % 1008,0 hPa 0,0 l/m 2 min 0 min 378 W/m 12,9 km/h (3 Bft) 95,74 %
20.06.2021 18:30 27,1 C 29,4 C 24,5 C 59 % 1008,0 hPa 0,0 l/m 2 min 0 min 386 W/m 9,7 km/h (2 Bft) 97,83 %
20.06.2021 18:32 27,1 C 30,6 C 25,0 C 59 % 1007,9 hPa 0,0 l/m 2 min 0 min 360 W/m 9,7 km/h (2 Bft) 93,62 %
20.06.2021 18:34 27,1 C 31,1 C 25,0 C 59 % 1007,9 hPa 0,0 l/m 2 min 0 min 563 W/m 3,2 km/h (1 Bft) 97,87 %
20.06.2021 18:36 27,1 C 31,1 C 25,0 C 59 % 1007,8 hPa 0,0 l/m 2 min 0 min 560 W/m 6,4 km/h (2 Bft) 93,62 %
20.06.2021 18:38 27,1 C 31,1 C 25,0 C 59 % 1007,8 hPa 0,0 l/m 2 min 0 min 463 W/m 9,7 km/h (2 Bft) 100,00 %
20.06.2021 18:40 27,2 C 30,6 C 25,0 C 59 % 1007,8 hPa 0,0 l/m 2 min 0 min 425 W/m 3,2 km/h (1 Bft) 97,87 %
20.06.2021 18:42 27,3 C 30,0 C 25,0 C 59 % 1007,8 hPa 0,0 l/m 2 min 0 min 288 W/m 6,4 km/h (2 Bft) 93,48 %
20.06.2021 18:44 27,2 C 29,4 C 25,0 C 58 % 1007,8 hPa 0,0 l/m 2 min 0 min 286 W/m 6,4 km/h (2 Bft) 97,87 %
20.06.2021 18:46 27,2 C 28,9 C 25,0 C 58 % 1007,7 hPa 0,0 l/m 2 min 0 min 309 W/m 6,4 km/h (2 Bft) 95,74 %
20.06.2021 18:48 27,1 C 28,9 C 24,5 C 58 % 1007,7 hPa 0,0 l/m 2 min 0 min 273 W/m 3,2 km/h (1 Bft) 93,62 %
20.06.2021 18:50 27,1 C 28,3 C 24,5 C 59 % 1007,8 hPa 0,0 l/m 2 min 0 min 291 W/m 3,2 km/h (1 Bft) 95,74 %
20.06.2021 18:52 26,9 C 28,3 C 24,5 C 59 % 1007,7 hPa 0,0 l/m 2 min 0 min 283 W/m 6,4 km/h (2 Bft) 93,62 %
20.06.2021 18:54 26,9 C 28,3 C 24,5 C 59 % 1007,6 hPa 0,0 l/m 2 min 0 min 276 W/m 6,4 km/h (2 Bft) 95,65 %
20.06.2021 18:56 26,9 C 28,3 C 24,5 C 60 % 1007,6 hPa 0,0 l/m 2 min 0 min 337 W/m 3,2 km/h (1 Bft) 95,74 %
20.06.2021 18:58 26,9 C 29,4 C 24,5 C 59 % 1007,6 hPa 0,0 l/m 2 min 0 min 417 W/m 9,7 km/h (2 Bft) 95,74 %
20.06.2021 19:00 27,0 C 30,0 C 25,0 C 59 % 1007,7 hPa 0,0 l/m 2 min 0 min 432 W/m 6,4 km/h (2 Bft) 95,74 %
20.06.2021 19:02 27,0 C 30,0 C 25,0 C 59 % 1007,6 hPa 0,0 l/m 2 min 0 min 441 W/m 6,4 km/h (2 Bft) 94,44 %
20.06.2021 19:04 27,1 C 30,0 C 25,0 C 58 % 1007,6 hPa 0,0 l/m 2 min 0 min 377 W/m 6,4 km/h (2 Bft) 95,65 %
20.06.2021 19:06 27,0 C 30,0 C 25,0 C 59 % 1007,4 hPa 0,0 l/m 2 min 0 min 437 W/m 3,2 km/h (1 Bft) 95,74 %
20.06.2021 19:08 27,1 C 30,0 C 25,0 C 61 % 1007,5 hPa 0,0 l/m 2 min 0 min 445 W/m 3,2 km/h (1 Bft) 95,83 %
20.06.2021 19:10 27,3 C 29,4 C 25,0 C 58 % 1007,4 hPa 0,0 l/m 2 min 0 min 406 W/m 3,2 km/h (1 Bft) 96,00 %
20.06.2021 19:12 27,3 C 29,4 C 25,0 C 59 % 1007,4 hPa 0,0 l/m 2 min 0 min 388 W/m 6,4 km/h (2 Bft) 95,74 %
20.06.2021 19:14 27,4 C 28,9 C 25,0 C 58 % 1007,3 hPa 0,0 l/m 2 min 0 min 369 W/m 12,9 km/h (3 Bft) 95,65 %
20.06.2021 19:16 27,4 C 28,9 C 25,0 C 60 % 1007,2 hPa 0,0 l/m 2 min 0 min 387 W/m 3,2 km/h (1 Bft) 91,49 %
20.06.2021 19:18 27,5 C 28,3 C 24,5 C 59 % 1007,3 hPa 0,0 l/m 2 min 0 min 369 W/m 12,9 km/h (3 Bft) 93,62 %
20.06.2021 19:20 27,5 C 28,3 C 24,5 C 58 % 1007,2 hPa 0,0 l/m 2 min 0 min 306 W/m 3,2 km/h (1 Bft) 93,62 %
20.06.2021 19:22 27,5 C 28,3 C 23,9 C 59 % 1007,2 hPa 0,0 l/m 2 min 0 min 311 W/m 3,2 km/h (1 Bft) 89,36 %
20.06.2021 19:24 27,5 C 27,8 C 23,9 C 59 % 1007,1 hPa 0,0 l/m 2 min 0 min 363 W/m 6,4 km/h (2 Bft) 80,85 %
20.06.2021 19:26 27,5 C 27,8 C 23,9 C 59 % 1007,1 hPa 0,0 l/m 2 min 0 min 357 W/m 6,4 km/h (2 Bft) 86,96 %
20.06.2021 19:28 27,5 C 27,8 C 23,9 C 58 % 1007,0 hPa 0,0 l/m 2 min 0 min 311 W/m 6,4 km/h (2 Bft) 93,62 %
20.06.2021 19:30 27,4 C 27,8 C 23,9 C 57 % 1007,0 hPa 0,0 l/m 2 min 0 min 192 W/m 9,7 km/h (2 Bft) 82,98 %
20.06.2021 19:32 27,4 C 27,2 C 23,4 C 58 % 1007,0 hPa 0,0 l/m 0 min 0 min 162 W/m 9,7 km/h (2 Bft) 87,23 %
20.06.2021 19:34 27,3 C 26,7 C 23,4 C 59 % 1006,9 hPa 0,0 l/m 0 min 0 min 139 W/m 6,4 km/h (2 Bft) 97,87 %
20.06.2021 19:36 27,1 C 26,1 C 22,8 C 59 % 1006,9 hPa 0,0 l/m 0 min 0 min 130 W/m 16,1 km/h (3 Bft) 95,74 %
20.06.2021 19:38 27,0 C 26,1 C 22,8 C 60 % 1006,9 hPa 0,0 l/m 0 min 0 min 104 W/m 9,7 km/h (2 Bft) 100,00 %
20.06.2021 19:40 27,0 C 26,1 C 22,8 C 61 % 1006,8 hPa 0,0 l/m 0 min 0 min 98 W/m 9,7 km/h (2 Bft) 97,87 %
20.06.2021 19:42 26,9 C 25,6 C 22,8 C 60 % 1006,8 hPa 0,0 l/m 0 min 0 min 93 W/m 16,1 km/h (3 Bft) 100,00 %
20.06.2021 19:44 26,8 C 25,6 C 22,8 C 61 % 1006,6 hPa 0,0 l/m 0 min 0 min 88 W/m 6,4 km/h (2 Bft) 100,00 %
20.06.2021 19:46 26,7 C 25,6 C 22,8 C 61 % 1006,6 hPa 0,0 l/m 0 min 0 min 81 W/m 9,7 km/h (2 Bft) 97,87 %
20.06.2021 19:48 26,6 C 25,6 C 22,8 C 61 % 1006,7 hPa 0,0 l/m 0 min 0 min 76 W/m 9,7 km/h (2 Bft) 100,00 %
20.06.2021 19:50 26,5 C 25,0 C 22,8 C 61 % 1006,6 hPa 0,0 l/m 0 min 0 min 70 W/m 12,9 km/h (3 Bft) 100,00 %
20.06.2021 19:52 26,5 C 25,0 C 22,8 C 61 % 1006,5 hPa 0,0 l/m 0 min 0 min 66 W/m 9,7 km/h (2 Bft) 100,00 %
20.06.2021 19:54 26,4 C 25,0 C 22,8 C 61 % 1006,5 hPa 0,0 l/m 0 min 0 min 62 W/m 6,4 km/h (2 Bft) 100,00 %
20.06.2021 19:56 26,3 C 25,0 C 22,8 C 62 % 1006,5 hPa 0,0 l/m 0 min 0 min 62 W/m 6,4 km/h (2 Bft) 100,00 %
20.06.2021 19:58 26,2 C 25,0 C 22,8 C 61 % 1006,5 hPa 0,0 l/m 0 min 0 min 62 W/m 12,9 km/h (3 Bft) 100,00 %
20.06.2021 20:00 26,1 C 25,0 C 22,8 C 62 % 1006,5 hPa 0,0 l/m 0 min 0 min 64 W/m 12,9 km/h (3 Bft) 100,00 %
20.06.2021 20:02 26,0 C 25,0 C 22,3 C 62 % 1006,6 hPa 0,0 l/m 0 min 0 min 69 W/m 9,7 km/h (2 Bft) 97,83 %
20.06.2021 20:04 26,0 C 25,0 C 22,3 C 62 % 1006,6 hPa 0,0 l/m 0 min 0 min 73 W/m 9,7 km/h (2 Bft) 100,00 %
20.06.2021 20:06 25,9 C 25,0 C 22,8 C 62 % 1006,6 hPa 0,0 l/m 0 min 0 min 77 W/m 9,7 km/h (2 Bft) 100,00 %
20.06.2021 20:08 25,9 C 25,0 C 22,8 C 62 % 1006,6 hPa 0,0 l/m 0 min 0 min 78 W/m 9,7 km/h (2 Bft) 100,00 %
20.06.2021 20:10 25,8 C 25,0 C 22,8 C 63 % 1006,6 hPa 0,0 l/m 0 min 0 min 79 W/m 6,4 km/h (2 Bft) 95,74 %
20.06.2021 20:12 25,7 C 25,0 C 22,8 C 63 % 1006,6 hPa 0,0 l/m 0 min 0 min 81 W/m 6,4 km/h (2 Bft) 100,00 %
20.06.2021 20:14 25,6 C 25,0 C 22,8 C 63 % 1006,6 hPa 0,0 l/m 0 min 0 min 81 W/m 6,4 km/h (2 Bft) 100,00 %
20.06.2021 20:16 25,6 C 25,0 C 22,3 C 64 % 1006,5 hPa 0,0 l/m 0 min 0 min 80 W/m 6,4 km/h (2 Bft) 100,00 %
20.06.2021 20:18 25,6 C 24,4 C 22,3 C 63 % 1006,5 hPa 0,0 l/m 0 min 0 min 76 W/m 9,7 km/h (2 Bft) 100,00 %
20.06.2021 20:20 25,5 C 24,4 C 22,3 C 64 % 1006,5 hPa 0,0 l/m 0 min 0 min 72 W/m 9,7 km/h (2 Bft) 97,87 %
20.06.2021 20:22 25,5 C 24,4 C 22,3 C 63 % 1006,6 hPa 0,0 l/m 0 min 0 min 69 W/m 12,9 km/h (3 Bft) 100,00 %
20.06.2021 20:24 25,5 C 24,4 C 22,3 C 64 % 1006,6 hPa 0,0 l/m 0 min 0 min 67 W/m 9,7 km/h (2 Bft) 100,00 %
20.06.2021 20:26 25,5 C 24,4 C 22,3 C 64 % 1006,6 hPa 0,0 l/m 0 min 0 min 65 W/m 6,4 km/h (2 Bft) 100,00 %
20.06.2021 20:28 25,4 C 24,4 C 21,7 C 64 % 1006,6 hPa 0,0 l/m 0 min 0 min 69 W/m 9,7 km/h (2 Bft) 100,00 %
20.06.2021 20:30 25,4 C 24,4 C 22,3 C 64 % 1006,7 hPa 0,0 l/m 0 min 0 min 75 W/m 3,2 km/h (1 Bft) 100,00 %
20.06.2021 20:32 25,4 C 24,4 C 21,7 C 65 % 1006,6 hPa 0,0 l/m 0 min 0 min 72 W/m 9,7 km/h (2 Bft) 100,00 %
20.06.2021 20:34 25,3 C 24,4 C 21,7 C 65 % 1006,6 hPa 0,0 l/m 0 min 0 min 66 W/m 3,2 km/h (1 Bft) 97,87 %
20.06.2021 20:36 25,2 C 24,4 C 21,7 C 65 % 1006,7 hPa 0,0 l/m 0 min 0 min 61 W/m 9,7 km/h (2 Bft) 100,00 %
20.06.2021 20:38 25,1 C 24,4 C 21,7 C 66 % 1006,6 hPa 0,0 l/m 0 min 0 min 54 W/m 6,4 km/h (2 Bft) 95,65 %
20.06.2021 20:40 25,1 C 24,4 C 21,7 C 65 % 1006,7 hPa 0,0 l/m 0 min 0 min 50 W/m 6,4 km/h (2 Bft) 100,00 %
20.06.2021 20:42 25,1 C 24,4 C 21,7 C 65 % 1006,7 hPa 0,0 l/m 0 min 0 min 45 W/m 6,4 km/h (2 Bft) 100,00 %
20.06.2021 20:44 25,0 C 23,9 C 21,7 C 65 % 1006,7 hPa 0,0 l/m 0 min 0 min 40 W/m 6,4 km/h (2 Bft) 97,87 %
20.06.2021 20:46 25,0 C 23,9 C 21,7 C 65 % 1006,8 hPa 0,0 l/m 0 min 0 min 36 W/m 3,2 km/h (1 Bft) 97,87 %
20.06.2021 20:48 25,0 C 23,9 C 21,7 C 65 % 1006,8 hPa 0,0 l/m 0 min 0 min 32 W/m 6,4 km/h (2 Bft) 97,83 %
20.06.2021 20:50 25,0 C 23,9 C 21,7 C 65 % 1006,8 hPa 0,0 l/m 0 min 0 min 28 W/m 12,9 km/h (3 Bft) 100,00 %
20.06.2021 20:52 24,9 C 23,9 C 21,7 C 66 % 1006,8 hPa 0,0 l/m 0 min 0 min 28 W/m 6,4 km/h (2 Bft) 100,00 %
20.06.2021 20:54 24,9 C 23,9 C 21,7 C 66 % 1006,8 hPa 0,0 l/m 0 min 0 min 27 W/m 6,4 km/h (2 Bft) 100,00 %
20.06.2021 20:56 24,9 C 23,9 C 21,7 C 66 % 1006,8 hPa 0,0 l/m 0 min 0 min 25 W/m 3,2 km/h (1 Bft) 97,87 %
20.06.2021 20:58 24,9 C 23,9 C 21,7 C 66 % 1006,7 hPa 0,0 l/m 0 min 0 min 23 W/m 3,2 km/h (1 Bft) 97,87 %
20.06.2021 21:00 24,8 C 23,9 C 21,7 C 66 % 1006,8 hPa 0,0 l/m 0 min 0 min 22 W/m 3,2 km/h (1 Bft) 97,83 %
20.06.2021 21:02 24,8 C 23,9 C 21,7 C 67 % 1006,7 hPa 0,0 l/m 0 min 0 min 19 W/m 6,4 km/h (2 Bft) 95,74 %
20.06.2021 21:04 24,8 C 23,3 C 21,1 C 66 % 1006,7 hPa 0,0 l/m 0 min 0 min 16 W/m 6,4 km/h (2 Bft) 95,74 %
20.06.2021 21:06 24,7 C 23,3 C 21,1 C 66 % 1006,8 hPa 0,0 l/m 0 min 0 min 13 W/m 3,2 km/h (1 Bft) 97,87 %
20.06.2021 21:08 24,6 C 23,3 C 21,1 C 66 % 1006,8 hPa 0,0 l/m 0 min 0 min 12 W/m 6,4 km/h (2 Bft) 98,00 %
20.06.2021 21:10 24,6 C 23,3 C 21,1 C 67 % 1006,8 hPa 0,0 l/m 0 min 0 min 11 W/m 3,2 km/h (1 Bft) 95,65 %
20.06.2021 21:12 24,6 C 23,3 C 21,1 C 67 % 1006,8 hPa 0,0 l/m 0 min 0 min 10 W/m 3,2 km/h (1 Bft) 97,87 %
20.06.2021 21:14 24,6 C 23,3 C 21,1 C 67 % 1006,8 hPa 0,0 l/m 0 min 0 min 9 W/m 3,2 km/h (1 Bft) 95,74 %
20.06.2021 21:16 24,5 C 23,3 C 21,1 C 67 % 1006,8 hPa 0,0 l/m 0 min 0 min 9 W/m 6,4 km/h (2 Bft) 97,87 %
20.06.2021 21:18 24,5 C 23,3 C 21,1 C 67 % 1006,8 hPa 0,0 l/m 0 min 0 min 9 W/m 6,4 km/h (2 Bft) 97,87 %
20.06.2021 21:20 24,5 C 23,3 C 21,1 C 67 % 1006,7 hPa 0,0 l/m 0 min 0 min 11 W/m 9,7 km/h (2 Bft) 95,74 %
20.06.2021 21:22 24,4 C 23,3 C 21,1 C 67 % 1006,8 hPa 0,0 l/m 0 min 0 min 10 W/m 6,4 km/h (2 Bft) 95,65 %
20.06.2021 21:24 24,4 C 23,3 C 21,1 C 66 % 1006,7 hPa 0,0 l/m 0 min 0 min 8 W/m 6,4 km/h (2 Bft) 93,62 %
20.06.2021 21:26 24,3 C 23,3 C 21,1 C 67 % 1006,8 hPa 0,0 l/m 0 min 0 min 7 W/m 3,2 km/h (1 Bft) 95,74 %
20.06.2021 21:28 24,3 C 23,3 C 21,1 C 66 % 1006,8 hPa 0,0 l/m 0 min 0 min 5 W/m 12,9 km/h (3 Bft) 95,74 %
20.06.2021 21:30 24,3 C 23,3 C 21,1 C 67 % 1006,7 hPa 0,0 l/m 0 min 0 min 5 W/m 3,2 km/h (1 Bft) 95,74 %
20.06.2021 21:32 24,2 C 23,3 C 20,6 C 67 % 1006,8 hPa 0,0 l/m 0 min 0 min 5 W/m 3,2 km/h (1 Bft) 95,74 %
20.06.2021 21:34 24,1 C 23,3 C 20,6 C 67 % 1006,8 hPa 0,0 l/m 0 min 0 min 0 W/m 9,7 km/h (2 Bft) 91,30 %
20.06.2021 21:36 24,1 C 23,3 C 20,6 C 66 % 1006,8 hPa 0,0 l/m 0 min 0 min 0 W/m 9,7 km/h (2 Bft) 93,62 %
20.06.2021 21:38 24,1 C 23,3 C 20,6 C 67 % 1006,8 hPa 0,0 l/m 0 min 0 min 0 W/m 6,4 km/h (2 Bft) 95,74 %
20.06.2021 21:40 24,1 C 22,8 C 20,6 C 67 % 1006,7 hPa 0,0 l/m 0 min 0 min 0 W/m 9,7 km/h (2 Bft) 93,62 %
20.06.2021 21:42 24,1 C 22,8 C 20,6 C 68 % 1006,7 hPa 0,0 l/m 0 min 0 min 0 W/m 6,4 km/h (2 Bft) 95,74 %
20.06.2021 21:44 24,0 C 22,8 C 20,6 C 67 % 1006,8 hPa 0,0 l/m 0 min 0 min 0 W/m 9,7 km/h (2 Bft) 95,74 %
20.06.2021 21:46 24,0 C 23,3 C 20,6 C 67 % 1006,8 hPa 0,0 l/m 0 min 0 min 0 W/m 3,2 km/h (1 Bft) 93,48 %
20.06.2021 21:48 24,0 C 23,3 C 20,6 C 67 % 1006,8 hPa 0,0 l/m 0 min 0 min 0 W/m 19,3 km/h (3 Bft) 95,74 %
20.06.2021 21:50 24,0 C 23,3 C 20,6 C 67 % 1006,9 hPa 0,0 l/m 0 min 0 min 0 W/m 19,3 km/h (3 Bft) 97,87 %
20.06.2021 21:52 24,0 C 23,3 C 20,6 C 67 % 1006,9 hPa 0,0 l/m 0 min 0 min 0 W/m 3,2 km/h (1 Bft) 95,74 %
20.06.2021 21:54 24,0 C 22,8 C 20,6 C 67 % 1006,9 hPa 0,0 l/m 0 min 0 min 0 W/m 3,2 km/h (1 Bft) 97,87 %
20.06.2021 21:56 24,0 C 22,8 C 20,6 C 67 % 1006,9 hPa 0,0 l/m 0 min 0 min 0 W/m 6,4 km/h (2 Bft) 95,74 %
20.06.2021 21:58 23,9 C 22,8 C 20,6 C 68 % 1006,9 hPa 0,0 l/m 0 min 0 min 0 W/m 3,2 km/h (1 Bft) 95,65 %
20.06.2021 22:00 23,9 C 22,8 C 20,6 C 67 % 1006,9 hPa 0,0 l/m 0 min 0 min 0 W/m 3,2 km/h (1 Bft) 95,74 %
20.06.2021 22:02 23,9 C 22,8 C 20,6 C 68 % 1006,9 hPa 0,0 l/m 0 min 0 min 0 W/m 12,9 km/h (3 Bft) 95,83 %
20.06.2021 22:04 23,9 C 22,8 C 20,6 C 68 % 1006,9 hPa 0,0 l/m 0 min 0 min 0 W/m 9,7 km/h (2 Bft) 95,74 %
20.06.2021 22:06 23,9 C 22,8 C 20,6 C 68 % 1006,9 hPa 0,0 l/m 0 min 0 min 0 W/m 6,4 km/h (2 Bft) 97,14 %
20.06.2021 22:08 23,8 C 22,8 C 20,6 C 68 % 1006,9 hPa 0,0 l/m 0 min 0 min 0 W/m 9,7 km/h (2 Bft) 95,74 %
20.06.2021 22:10 23,8 C 22,8 C 20,6 C 68 % 1006,8 hPa 0,0 l/m 0 min 0 min 0 W/m 6,4 km/h (2 Bft) 97,87 %
20.06.2021 22:12 23,8 C 22,8 C 20,6 C 68 % 1006,7 hPa 0,0 l/m 0 min 0 min 0 W/m 3,2 km/h (1 Bft) 96,23 %
20.06.2021 22:14 23,8 C 22,8 C 20,6 C 68 % 1006,9 hPa 0,0 l/m 0 min 0 min 0 W/m 3,2 km/h (1 Bft) 98,00 %
20.06.2021 22:16 23,8 C 22,8 C 20,6 C 68 % 1006,9 hPa 0,0 l/m 0 min 0 min 0 W/m 3,2 km/h (1 Bft) 97,87 %
20.06.2021 22:18 23,8 C 22,8 C 20,6 C 68 % 1006,8 hPa 0,0 l/m 0 min 0 min 0 W/m 6,4 km/h (2 Bft) 95,74 %
20.06.2021 22:20 23,7 C 22,8 C 20,6 C 68 % 1006,8 hPa 0,0 l/m 0 min 0 min 0 W/m 6,4 km/h (2 Bft) 97,83 %
20.06.2021 22:22 23,7 C 22,8 C 20,6 C 68 % 1006,7 hPa 0,0 l/m 0 min 0 min 0 W/m 6,4 km/h (2 Bft) 95,92 %
20.06.2021 22:24 23,7 C 22,8 C 20,6 C 68 % 1006,7 hPa 0,0 l/m 0 min 0 min 0 W/m 6,4 km/h (2 Bft) 94,29 %
20.06.2021 22:26 23,7 C 22,8 C 20,6 C 69 % 1006,7 hPa 0,0 l/m 0 min 0 min 0 W/m 6,4 km/h (2 Bft) 98,15 %
20.06.2021 22:28 23,6 C 22,8 C 20,6 C 68 % 1006,6 hPa 0,0 l/m 0 min 0 min 0 W/m 3,2 km/h (1 Bft) 95,74 %
20.06.2021 22:30 23,6 C 22,8 C 20,6 C 68 % 1006,6 hPa 0,0 l/m 0 min 0 min 0 W/m 9,7 km/h (2 Bft) 96,00 %
20.06.2021 22:32 23,6 C 22,8 C 20,6 C 69 % 1006,6 hPa 0,0 l/m 0 min 0 min 0 W/m 6,4 km/h (2 Bft) 97,92 %
20.06.2021 22:34 23,6 C 22,8 C 20,6 C 68 % 1006,6 hPa 0,0 l/m 0 min 0 min 0 W/m 6,4 km/h (2 Bft) 97,87 %
20.06.2021 22:36 23,6 C 22,8 C 20,6 C 68 % 1006,5 hPa 0,0 l/m 0 min 0 min 0 W/m 3,2 km/h (1 Bft) 97,14 %
20.06.2021 22:38 23,5 C 22,8 C 20,6 C 69 % 1006,5 hPa 0,0 l/m 0 min 0 min 0 W/m 6,4 km/h (2 Bft) 98,15 %
20.06.2021 22:40 23,5 C 22,8 C 20,6 C 68 % 1006,5 hPa 0,0 l/m 0 min 0 min 0 W/m 6,4 km/h (2 Bft) 97,87 %
20.06.2021 22:42 23,5 C 22,8 C 20,6 C 69 % 1006,5 hPa 0,0 l/m 0 min 0 min 0 W/m 3,2 km/h (1 Bft) 94,00 %
20.06.2021 22:44 23,5 C 22,8 C 20,6 C 69 % 1006,4 hPa 0,0 l/m 0 min 0 min 0 W/m 6,4 km/h (2 Bft) 95,83 %
20.06.2021 22:46 23,5 C 22,8 C 20,6 C 68 % 1006,4 hPa 0,0 l/m 0 min 0 min 0 W/m 9,7 km/h (2 Bft) 97,22 %
20.06.2021 22:48 23,5 C 22,8 C 20,6 C 68 % 1006,4 hPa 0,0 l/m 0 min 0 min 0 W/m 6,4 km/h (2 Bft) 97,83 %
20.06.2021 22:50 23,5 C 22,8 C 20,6 C 68 % 1006,4 hPa 0,0 l/m 0 min 0 min 0 W/m 6,4 km/h (2 Bft) 96,30 %
20.06.2021 22:52 23,5 C 22,8 C 20,6 C 68 % 1006,4 hPa 0,0 l/m 0 min 0 min 0 W/m 3,2 km/h (1 Bft) 97,87 %
20.06.2021 22:54 23,5 C 22,8 C 20,0 C 69 % 1006,4 hPa 0,0 l/m 0 min 0 min 0 W/m 6,4 km/h (2 Bft) 98,00 %
20.06.2021 22:56 23,5 C 22,2 C 20,0 C 70 % 1006,4 hPa 0,0 l/m 0 min 2 min 0 W/m 3,2 km/h (1 Bft) 95,83 %
20.06.2021 22:58 23,5 C 22,2 C 19,5 C 71 % 1006,4 hPa 0,0 l/m 0 min 0 min 0 W/m 3,2 km/h (1 Bft) 100,00 %
20.06.2021 23:00 23,5 C 22,2 C 19,5 C 72 % 1006,3 hPa 0,0 l/m 0 min 0 min 0 W/m 6,4 km/h (2 Bft) 97,87 %
20.06.2021 23:02 23,4 C 22,2 C 19,5 C 73 % 1006,3 hPa 0,0 l/m 0 min 0 min 0 W/m 3,2 km/h (1 Bft) 100,00 %
20.06.2021 23:04 23,3 C 21,7 C 19,5 C 74 % 1006,4 hPa 0,0 l/m 0 min 0 min 0 W/m 3,2 km/h (1 Bft) 100,00 %
20.06.2021 23:06 23,3 C 21,7 C 19,5 C 74 % 1006,4 hPa 0,0 l/m 0 min 0 min 0 W/m 3,2 km/h (1 Bft) 100,00 %
20.06.2021 23:08 23,1 C 21,7 C 19,5 C 74 % 1006,3 hPa 0,0 l/m 0 min 0 min 0 W/m 6,4 km/h (2 Bft) 97,87 %
20.06.2021 23:10 23,1 C 21,7 C 19,5 C 74 % 1006,2 hPa 0,0 l/m 0 min 0 min 0 W/m 6,4 km/h (2 Bft) 95,65 %
20.06.2021 23:12 23,0 C 21,7 C 19,5 C 74 % 1006,1 hPa 0,0 l/m 0 min 0 min 0 W/m 6,4 km/h (2 Bft) 97,87 %
20.06.2021 23:14 22,9 C 21,7 C 19,5 C 74 % 1006,1 hPa 0,0 l/m 0 min 0 min 0 W/m 9,7 km/h (2 Bft) 100,00 %
20.06.2021 23:16 22,9 C 21,1 C 18,9 C 74 % 1006,1 hPa 0,0 l/m 0 min 0 min 0 W/m 6,4 km/h (2 Bft) 100,00 %
20.06.2021 23:18 22,8 C 21,1 C 18,9 C 74 % 1006,1 hPa 0,0 l/m 0 min 0 min 0 W/m 6,4 km/h (2 Bft) 100,00 %
20.06.2021 23:20 22,6 C 21,1 C 18,9 C 75 % 1006,1 hPa 0,0 l/m 0 min 0 min 0 W/m 6,4 km/h (2 Bft) 98,15 %
20.06.2021 23:22 22,6 C 21,1 C 18,9 C 74 % 1006,0 hPa 0,0 l/m 0 min 0 min 0 W/m 9,7 km/h (2 Bft) 100,00 %
20.06.2021 23:24 22,5 C 21,7 C 19,5 C 74 % 1005,9 hPa 0,0 l/m 0 min 0 min 0 W/m 6,4 km/h (2 Bft) 100,00 %
20.06.2021 23:26 22,5 C 21,7 C 19,5 C 74 % 1005,9 hPa 0,0 l/m 0 min 0 min 0 W/m 9,7 km/h (2 Bft) 100,00 %
20.06.2021 23:28 22,5 C 21,7 C 19,5 C 75 % 1005,9 hPa 0,0 l/m 0 min 0 min 0 W/m 12,9 km/h (3 Bft) 100,00 %
20.06.2021 23:30 22,4 C 21,7 C 19,5 C 74 % 1005,8 hPa 0,0 l/m 0 min 0 min 0 W/m 12,9 km/h (3 Bft) 97,87 %
20.06.2021 23:32 22,4 C 21,7 C 19,5 C 74 % 1005,8 hPa 0,0 l/m 0 min 0 min 0 W/m 12,9 km/h (3 Bft) 100,00 %
20.06.2021 23:34 22,4 C 21,7 C 19,5 C 74 % 1005,7 hPa 0,0 l/m 0 min 0 min 0 W/m 16,1 km/h (3 Bft) 100,00 %
20.06.2021 23:36 22,4 C 21,7 C 19,5 C 74 % 1005,7 hPa 0,0 l/m 0 min 0 min 0 W/m 9,7 km/h (2 Bft) 100,00 %
20.06.2021 23:38 22,4 C 21,7 C 19,5 C 74 % 1005,7 hPa 0,0 l/m 0 min 0 min 0 W/m 19,3 km/h (3 Bft) 100,00 %
20.06.2021 23:40 22,4 C 21,7 C 19,5 C 74 % 1005,7 hPa 0,0 l/m 0 min 0 min 0 W/m 9,7 km/h (2 Bft) 95,74 %
20.06.2021 23:42 22,3 C 21,7 C 19,5 C 73 % 1005,7 hPa 0,0 l/m 0 min 0 min 0 W/m 16,1 km/h (3 Bft) 97,83 %
20.06.2021 23:44 22,3 C 21,7 C 19,5 C 73 % 1005,7 hPa 0,0 l/m 0 min 0 min 0 W/m 12,9 km/h (3 Bft) 97,87 %
20.06.2021 23:46 22,3 C 21,7 C 19,5 C 73 % 1005,6 hPa 0,0 l/m 0 min 0 min 0 W/m 12,9 km/h (3 Bft) 100,00 %
20.06.2021 23:48 22,3 C 21,7 C 19,5 C 73 % 1005,6 hPa 0,0 l/m 0 min 0 min 0 W/m 6,4 km/h (2 Bft) 100,00 %
20.06.2021 23:50 22,4 C 21,7 C 19,5 C 73 % 1005,5 hPa 0,0 l/m 0 min 0 min 0 W/m 19,3 km/h (3 Bft) 100,00 %
20.06.2021 23:52 22,4 C 21,7 C 19,5 C 73 % 1005,6 hPa 0,0 l/m 0 min 0 min 0 W/m 12,9 km/h (3 Bft) 97,14 %
20.06.2021 23:54 22,4 C 21,7 C 19,5 C 73 % 1005,6 hPa 0,0 l/m 0 min 0 min 0 W/m 9,7 km/h (2 Bft) 100,00 %
20.06.2021 23:56 22,4 C 21,7 C 19,5 C 73 % 1005,6 hPa 0,0 l/m 0 min 0 min 0 W/m 6,4 km/h (2 Bft) 97,96 %
20.06.2021 23:58 22,4 C 21,7 C 19,5 C 73 % 1005,6 hPa 0,0 l/m 0 min 0 min 0 W/m 9,7 km/h (2 Bft) 97,87 %
_ Min-Zeit 06:14 04:34 03:36 14:46 23:50 - - - - 00:26 17:38
Minimum _ 19,8 C 18,9 C 17,3 C 56 % 1005,5 hPa - - - - 0,0 km/h (0 Bft) 57,14 %
_ Max-Zeit 16:02 18:14 13:40 02:42 00:46 00:08 18:08 00:08 13:26 11:22 00:12
Maximum _ 28,0 C 32,2 C 36,7 C 98 % 1009,6 hPa 0,6 l/m 4 min 4 min 1113 W/m 48,3 km/h
SW (6 Bft)
100,00 %
Durchschnitt _ 23,6 C 24,0 C 22,3 C 75 % 1007,8 hPa #5,0 l/m #8:50 h #1:26 h 423 W/m 13,7 km/h (3 Bft) 96,97 %
© 2021 W. Hausmann